<?xml version="1.0" encoding="UTF-8" standalone="no" ?>
<gpx xmlns="http://www.topografix.com/GPX/1/1" xmlns:xsi="http://www.w3.org/2001/XMLSchema-instance" xsi:schemaLocation="http://www.topografix.com/GPX/1/1 http://www.topografix.com/GPX/1/1/gpx.xsd" version="1.1" creator="VisuGPX - https://www.visugpx.com">
  <metadata>
    <name>Entre Meslay Grez et Coëvrons (LA BAZOUGE-SAULGES-BALLEE-MESLAY-ARQUENAY)</name>
    <desc><![CDATA[Trace adapté -> Attention quelques secteurs à pieds au niveau de Saulges (marches, pierres) 
Sentier: 260 m
Chemin: 12,3 km
Voie d'accès: < 100 m
Rue: 9,86 km
Route: 28,9 km
Nationale: 342 m]]></desc>
  </metadata>
  <trk>
    <name><![CDATA[N°1-18820057]]></name>
    <extensions>
      <line xmlns="http://www.topografix.com/GPX/gpx_style/0/2">
        <color>0000FF</color>
        <width>4</width>
      </line>
    </extensions>
    <trkseg>
      <trkpt lat="48.00176" lon="-0.48709">
        <ele>78</ele>
        <time>2024-04-24T09:16:51Z</time>
      </trkpt>
      <trkpt lat="48.00171" lon="-0.48677">
        <ele>76</ele>
        <time>2024-04-24T09:16:55Z</time>
      </trkpt>
      <trkpt lat="48.00135" lon="-0.48665">
        <ele>76</ele>
        <time>2024-04-24T09:17:01Z</time>
      </trkpt>
      <trkpt lat="48.00039" lon="-0.48644">
        <ele>75</ele>
        <time>2024-04-24T09:17:19Z</time>
      </trkpt>
      <trkpt lat="48.0003" lon="-0.48652">
        <ele>75</ele>
        <time>2024-04-24T09:17:21Z</time>
      </trkpt>
      <trkpt lat="48.00006" lon="-0.48633">
        <ele>74</ele>
        <time>2024-04-24T09:17:25Z</time>
      </trkpt>
      <trkpt lat="47.99993" lon="-0.4862">
        <ele>74</ele>
        <time>2024-04-24T09:17:28Z</time>
      </trkpt>
      <trkpt lat="47.99986" lon="-0.48607">
        <ele>73</ele>
        <time>2024-04-24T09:17:30Z</time>
      </trkpt>
      <trkpt lat="47.99982" lon="-0.48594">
        <ele>72</ele>
        <time>2024-04-24T09:17:32Z</time>
      </trkpt>
      <trkpt lat="47.99979" lon="-0.48581">
        <ele>71</ele>
        <time>2024-04-24T09:17:34Z</time>
      </trkpt>
      <trkpt lat="47.99979" lon="-0.48556">
        <ele>71</ele>
        <time>2024-04-24T09:17:37Z</time>
      </trkpt>
      <trkpt lat="47.99996" lon="-0.48473">
        <ele>72</ele>
        <time>2024-04-24T09:17:47Z</time>
      </trkpt>
      <trkpt lat="47.99998" lon="-0.48453">
        <ele>73</ele>
        <time>2024-04-24T09:17:49Z</time>
      </trkpt>
      <trkpt lat="47.99997" lon="-0.48434">
        <ele>74</ele>
        <time>2024-04-24T09:17:52Z</time>
      </trkpt>
      <trkpt lat="47.99995" lon="-0.48425">
        <ele>74</ele>
        <time>2024-04-24T09:17:53Z</time>
      </trkpt>
      <trkpt lat="47.99984" lon="-0.48379">
        <ele>75</ele>
        <time>2024-04-24T09:17:58Z</time>
      </trkpt>
      <trkpt lat="47.9984" lon="-0.47816">
        <ele>80</ele>
        <time>2024-04-24T09:19:10Z</time>
      </trkpt>
      <trkpt lat="47.99832" lon="-0.478">
        <ele>80</ele>
        <time>2024-04-24T09:19:13Z</time>
      </trkpt>
      <trkpt lat="47.99824" lon="-0.47788">
        <ele>81</ele>
        <time>2024-04-24T09:19:15Z</time>
      </trkpt>
      <trkpt lat="47.99809" lon="-0.47773">
        <ele>81</ele>
        <time>2024-04-24T09:19:18Z</time>
      </trkpt>
      <trkpt lat="47.99767" lon="-0.47742">
        <ele>81</ele>
        <time>2024-04-24T09:19:26Z</time>
      </trkpt>
      <trkpt lat="47.99733" lon="-0.47709">
        <ele>81</ele>
        <time>2024-04-24T09:19:33Z</time>
      </trkpt>
      <trkpt lat="47.99699" lon="-0.47664">
        <ele>83</ele>
        <time>2024-04-24T09:19:41Z</time>
      </trkpt>
      <trkpt lat="47.99659" lon="-0.47619">
        <ele>83</ele>
        <time>2024-04-24T09:19:50Z</time>
      </trkpt>
      <trkpt lat="47.99583" lon="-0.47545">
        <ele>82</ele>
        <time>2024-04-24T09:20:07Z</time>
      </trkpt>
      <trkpt lat="47.99327" lon="-0.47198">
        <ele>84</ele>
        <time>2024-04-24T09:21:08Z</time>
      </trkpt>
      <trkpt lat="47.99293" lon="-0.47146">
        <ele>84</ele>
        <time>2024-04-24T09:21:17Z</time>
      </trkpt>
      <trkpt lat="47.99274" lon="-0.47102">
        <ele>85</ele>
        <time>2024-04-24T09:21:23Z</time>
      </trkpt>
      <trkpt lat="47.99261" lon="-0.47054">
        <ele>85</ele>
        <time>2024-04-24T09:21:29Z</time>
      </trkpt>
      <trkpt lat="47.99253" lon="-0.46993">
        <ele>84</ele>
        <time>2024-04-24T09:21:36Z</time>
      </trkpt>
      <trkpt lat="47.99253" lon="-0.4687">
        <ele>84</ele>
        <time>2024-04-24T09:21:51Z</time>
      </trkpt>
      <trkpt lat="47.99251" lon="-0.46841">
        <ele>84</ele>
        <time>2024-04-24T09:21:55Z</time>
      </trkpt>
      <trkpt lat="47.99243" lon="-0.46812">
        <ele>84</ele>
        <time>2024-04-24T09:21:58Z</time>
      </trkpt>
      <trkpt lat="47.99207" lon="-0.46733">
        <ele>84</ele>
        <time>2024-04-24T09:22:10Z</time>
      </trkpt>
      <trkpt lat="47.99188" lon="-0.46687">
        <ele>84</ele>
        <time>2024-04-24T09:22:16Z</time>
      </trkpt>
      <trkpt lat="47.99166" lon="-0.46608">
        <ele>85</ele>
        <time>2024-04-24T09:22:26Z</time>
      </trkpt>
      <trkpt lat="47.99147" lon="-0.46536">
        <ele>85</ele>
        <time>2024-04-24T09:22:36Z</time>
      </trkpt>
      <trkpt lat="47.99092" lon="-0.46384">
        <ele>88</ele>
        <time>2024-04-24T09:22:56Z</time>
      </trkpt>
      <trkpt lat="47.99068" lon="-0.46314">
        <ele>90</ele>
        <time>2024-04-24T09:23:05Z</time>
      </trkpt>
      <trkpt lat="47.99054" lon="-0.46268">
        <ele>90</ele>
        <time>2024-04-24T09:23:12Z</time>
      </trkpt>
      <trkpt lat="47.99033" lon="-0.46194">
        <ele>92</ele>
        <time>2024-04-24T09:23:21Z</time>
      </trkpt>
      <trkpt lat="47.99019" lon="-0.46156">
        <ele>93</ele>
        <time>2024-04-24T09:23:26Z</time>
      </trkpt>
      <trkpt lat="47.98993" lon="-0.46107">
        <ele>93</ele>
        <time>2024-04-24T09:23:34Z</time>
      </trkpt>
      <trkpt lat="47.98966" lon="-0.46042">
        <ele>93</ele>
        <time>2024-04-24T09:23:43Z</time>
      </trkpt>
      <trkpt lat="47.98879" lon="-0.45778">
        <ele>96</ele>
        <time>2024-04-24T09:24:18Z</time>
      </trkpt>
      <trkpt lat="47.9884" lon="-0.45614">
        <ele>96</ele>
        <time>2024-04-24T09:24:39Z</time>
      </trkpt>
      <trkpt lat="47.98829" lon="-0.45579">
        <ele>96</ele>
        <time>2024-04-24T09:24:43Z</time>
      </trkpt>
      <trkpt lat="47.98705" lon="-0.45261">
        <ele>95</ele>
        <time>2024-04-24T09:25:27Z</time>
      </trkpt>
      <trkpt lat="47.98688" lon="-0.45235">
        <ele>95</ele>
        <time>2024-04-24T09:25:31Z</time>
      </trkpt>
      <trkpt lat="47.98668" lon="-0.45215">
        <ele>95</ele>
        <time>2024-04-24T09:25:36Z</time>
      </trkpt>
      <trkpt lat="47.98638" lon="-0.45193">
        <ele>95</ele>
        <time>2024-04-24T09:25:42Z</time>
      </trkpt>
      <trkpt lat="47.98524" lon="-0.45136">
        <ele>95</ele>
        <time>2024-04-24T09:26:03Z</time>
      </trkpt>
      <trkpt lat="47.98411" lon="-0.45077">
        <ele>94</ele>
        <time>2024-04-24T09:26:24Z</time>
      </trkpt>
      <trkpt lat="47.98389" lon="-0.45061">
        <ele>93</ele>
        <time>2024-04-24T09:26:29Z</time>
      </trkpt>
      <trkpt lat="47.98371" lon="-0.45037">
        <ele>92</ele>
        <time>2024-04-24T09:26:33Z</time>
      </trkpt>
      <trkpt lat="47.98307" lon="-0.44921">
        <ele>92</ele>
        <time>2024-04-24T09:26:51Z</time>
      </trkpt>
      <trkpt lat="47.98265" lon="-0.44877">
        <ele>92</ele>
        <time>2024-04-24T09:27:00Z</time>
      </trkpt>
      <trkpt lat="47.98238" lon="-0.44845">
        <ele>92</ele>
        <time>2024-04-24T09:27:06Z</time>
      </trkpt>
      <trkpt lat="47.98131" lon="-0.44664">
        <ele>87</ele>
        <time>2024-04-24T09:27:35Z</time>
      </trkpt>
      <trkpt lat="47.98117" lon="-0.44633">
        <ele>87</ele>
        <time>2024-04-24T09:27:39Z</time>
      </trkpt>
      <trkpt lat="47.98093" lon="-0.44545">
        <ele>86</ele>
        <time>2024-04-24T09:27:51Z</time>
      </trkpt>
      <trkpt lat="47.98051" lon="-0.44454">
        <ele>85</ele>
        <time>2024-04-24T09:28:04Z</time>
      </trkpt>
      <trkpt lat="47.98043" lon="-0.44427">
        <ele>85</ele>
        <time>2024-04-24T09:28:07Z</time>
      </trkpt>
      <trkpt lat="47.98037" lon="-0.44404">
        <ele>84</ele>
        <time>2024-04-24T09:28:10Z</time>
      </trkpt>
      <trkpt lat="47.98033" lon="-0.44373">
        <ele>84</ele>
        <time>2024-04-24T09:28:14Z</time>
      </trkpt>
      <trkpt lat="47.98025" lon="-0.44371">
        <ele>84</ele>
        <time>2024-04-24T09:28:15Z</time>
      </trkpt>
      <trkpt lat="47.98021" lon="-0.44367">
        <ele>84</ele>
        <time>2024-04-24T09:28:16Z</time>
      </trkpt>
      <trkpt lat="47.98018" lon="-0.44361">
        <ele>84</ele>
        <time>2024-04-24T09:28:17Z</time>
      </trkpt>
      <trkpt lat="47.98017" lon="-0.44348">
        <ele>84</ele>
        <time>2024-04-24T09:28:19Z</time>
      </trkpt>
      <trkpt lat="47.98" lon="-0.44321">
        <ele>84</ele>
        <time>2024-04-24T09:28:23Z</time>
      </trkpt>
      <trkpt lat="47.97975" lon="-0.44302">
        <ele>85</ele>
        <time>2024-04-24T09:28:28Z</time>
      </trkpt>
      <trkpt lat="47.97865" lon="-0.4423">
        <ele>84</ele>
        <time>2024-04-24T09:28:49Z</time>
      </trkpt>
      <trkpt lat="47.97866" lon="-0.44228">
        <ele>84</ele>
        <time>2024-04-24T09:28:50Z</time>
      </trkpt>
      <trkpt lat="47.97885" lon="-0.44182">
        <ele>85</ele>
        <time>2024-04-24T09:28:56Z</time>
      </trkpt>
      <trkpt lat="47.97909" lon="-0.44152">
        <ele>86</ele>
        <time>2024-04-24T09:29:02Z</time>
      </trkpt>
      <trkpt lat="47.97928" lon="-0.4414">
        <ele>86</ele>
        <time>2024-04-24T09:29:05Z</time>
      </trkpt>
      <trkpt lat="47.9793" lon="-0.4414">
        <ele>86</ele>
        <time>2024-04-24T09:29:06Z</time>
      </trkpt>
      <trkpt lat="47.97928" lon="-0.4414">
        <ele>86</ele>
        <time>2024-04-24T09:29:06Z</time>
      </trkpt>
      <trkpt lat="47.97907" lon="-0.44106">
        <ele>85</ele>
        <time>2024-04-24T09:29:12Z</time>
      </trkpt>
      <trkpt lat="47.97877" lon="-0.44072">
        <ele>84</ele>
        <time>2024-04-24T09:29:18Z</time>
      </trkpt>
      <trkpt lat="47.97857" lon="-0.44046">
        <ele>82</ele>
        <time>2024-04-24T09:29:23Z</time>
      </trkpt>
      <trkpt lat="47.97851" lon="-0.44035">
        <ele>82</ele>
        <time>2024-04-24T09:29:25Z</time>
      </trkpt>
      <trkpt lat="47.9784" lon="-0.44004">
        <ele>80</ele>
        <time>2024-04-24T09:29:29Z</time>
      </trkpt>
      <trkpt lat="47.9784" lon="-0.43995">
        <ele>80</ele>
        <time>2024-04-24T09:29:30Z</time>
      </trkpt>
      <trkpt lat="47.97878" lon="-0.43943">
        <ele>80</ele>
        <time>2024-04-24T09:29:39Z</time>
      </trkpt>
      <trkpt lat="47.97861" lon="-0.43854">
        <ele>78</ele>
        <time>2024-04-24T09:29:50Z</time>
      </trkpt>
      <trkpt lat="47.97846" lon="-0.43733">
        <ele>78</ele>
        <time>2024-04-24T09:30:05Z</time>
      </trkpt>
      <trkpt lat="47.97835" lon="-0.43668">
        <ele>80</ele>
        <time>2024-04-24T09:30:13Z</time>
      </trkpt>
      <trkpt lat="47.97842" lon="-0.43607">
        <ele>81</ele>
        <time>2024-04-24T09:30:20Z</time>
      </trkpt>
      <trkpt lat="47.97865" lon="-0.435">
        <ele>84</ele>
        <time>2024-04-24T09:30:34Z</time>
      </trkpt>
      <trkpt lat="47.97873" lon="-0.43368">
        <ele>85</ele>
        <time>2024-04-24T09:30:49Z</time>
      </trkpt>
      <trkpt lat="47.97875" lon="-0.43288">
        <ele>86</ele>
        <time>2024-04-24T09:30:59Z</time>
      </trkpt>
      <trkpt lat="47.9787" lon="-0.43258">
        <ele>86</ele>
        <time>2024-04-24T09:31:03Z</time>
      </trkpt>
      <trkpt lat="47.97859" lon="-0.432">
        <ele>86</ele>
        <time>2024-04-24T09:31:10Z</time>
      </trkpt>
      <trkpt lat="47.9784" lon="-0.4314">
        <ele>86</ele>
        <time>2024-04-24T09:31:18Z</time>
      </trkpt>
      <trkpt lat="47.9784" lon="-0.43075">
        <ele>87</ele>
        <time>2024-04-24T09:31:25Z</time>
      </trkpt>
      <trkpt lat="47.97874" lon="-0.4303">
        <ele>89</ele>
        <time>2024-04-24T09:31:34Z</time>
      </trkpt>
      <trkpt lat="47.97891" lon="-0.43">
        <ele>90</ele>
        <time>2024-04-24T09:31:38Z</time>
      </trkpt>
      <trkpt lat="47.979" lon="-0.42991">
        <ele>90</ele>
        <time>2024-04-24T09:31:40Z</time>
      </trkpt>
      <trkpt lat="47.97936" lon="-0.42928">
        <ele>89</ele>
        <time>2024-04-24T09:31:50Z</time>
      </trkpt>
      <trkpt lat="47.97948" lon="-0.429">
        <ele>88</ele>
        <time>2024-04-24T09:31:54Z</time>
      </trkpt>
      <trkpt lat="47.97958" lon="-0.42848">
        <ele>86</ele>
        <time>2024-04-24T09:32:00Z</time>
      </trkpt>
      <trkpt lat="47.97965" lon="-0.42789">
        <ele>84</ele>
        <time>2024-04-24T09:32:08Z</time>
      </trkpt>
      <trkpt lat="47.97974" lon="-0.42765">
        <ele>83</ele>
        <time>2024-04-24T09:32:11Z</time>
      </trkpt>
      <trkpt lat="47.97992" lon="-0.42725">
        <ele>82</ele>
        <time>2024-04-24T09:32:17Z</time>
      </trkpt>
      <trkpt lat="47.98055" lon="-0.42625">
        <ele>83</ele>
        <time>2024-04-24T09:32:33Z</time>
      </trkpt>
      <trkpt lat="47.98094" lon="-0.42591">
        <ele>85</ele>
        <time>2024-04-24T09:32:41Z</time>
      </trkpt>
      <trkpt lat="47.98108" lon="-0.42579">
        <ele>86</ele>
        <time>2024-04-24T09:32:44Z</time>
      </trkpt>
      <trkpt lat="47.98147" lon="-0.42535">
        <ele>88</ele>
        <time>2024-04-24T09:32:53Z</time>
      </trkpt>
      <trkpt lat="47.98172" lon="-0.425">
        <ele>89</ele>
        <time>2024-04-24T09:32:59Z</time>
      </trkpt>
      <trkpt lat="47.98202" lon="-0.42448">
        <ele>88</ele>
        <time>2024-04-24T09:33:07Z</time>
      </trkpt>
      <trkpt lat="47.98262" lon="-0.42358">
        <ele>86</ele>
        <time>2024-04-24T09:33:22Z</time>
      </trkpt>
      <trkpt lat="47.98283" lon="-0.42335">
        <ele>85</ele>
        <time>2024-04-24T09:33:27Z</time>
      </trkpt>
      <trkpt lat="47.983" lon="-0.42329">
        <ele>86</ele>
        <time>2024-04-24T09:33:30Z</time>
      </trkpt>
      <trkpt lat="47.98325" lon="-0.42291">
        <ele>85</ele>
        <time>2024-04-24T09:33:36Z</time>
      </trkpt>
      <trkpt lat="47.9836" lon="-0.42234">
        <ele>84</ele>
        <time>2024-04-24T09:33:45Z</time>
      </trkpt>
      <trkpt lat="47.9839" lon="-0.42203">
        <ele>83</ele>
        <time>2024-04-24T09:33:52Z</time>
      </trkpt>
      <trkpt lat="47.98404" lon="-0.42198">
        <ele>83</ele>
        <time>2024-04-24T09:33:54Z</time>
      </trkpt>
      <trkpt lat="47.98451" lon="-0.42165">
        <ele>80</ele>
        <time>2024-04-24T09:34:04Z</time>
      </trkpt>
      <trkpt lat="47.98459" lon="-0.42151">
        <ele>79</ele>
        <time>2024-04-24T09:34:06Z</time>
      </trkpt>
      <trkpt lat="47.98469" lon="-0.42102">
        <ele>78</ele>
        <time>2024-04-24T09:34:12Z</time>
      </trkpt>
      <trkpt lat="47.98482" lon="-0.42075">
        <ele>77</ele>
        <time>2024-04-24T09:34:16Z</time>
      </trkpt>
      <trkpt lat="47.98486" lon="-0.42059">
        <ele>76</ele>
        <time>2024-04-24T09:34:18Z</time>
      </trkpt>
      <trkpt lat="47.98491" lon="-0.42049">
        <ele>75</ele>
        <time>2024-04-24T09:34:19Z</time>
      </trkpt>
      <trkpt lat="47.98502" lon="-0.42015">
        <ele>74</ele>
        <time>2024-04-24T09:34:24Z</time>
      </trkpt>
      <trkpt lat="47.98509" lon="-0.41986">
        <ele>73</ele>
        <time>2024-04-24T09:34:27Z</time>
      </trkpt>
      <trkpt lat="47.98511" lon="-0.41965">
        <ele>72</ele>
        <time>2024-04-24T09:34:30Z</time>
      </trkpt>
      <trkpt lat="47.98503" lon="-0.41943">
        <ele>71</ele>
        <time>2024-04-24T09:34:33Z</time>
      </trkpt>
      <trkpt lat="47.98485" lon="-0.41909">
        <ele>72</ele>
        <time>2024-04-24T09:34:38Z</time>
      </trkpt>
      <trkpt lat="47.98482" lon="-0.41896">
        <ele>72</ele>
        <time>2024-04-24T09:34:40Z</time>
      </trkpt>
      <trkpt lat="47.98482" lon="-0.41885">
        <ele>72</ele>
        <time>2024-04-24T09:34:41Z</time>
      </trkpt>
      <trkpt lat="47.98492" lon="-0.41849">
        <ele>70</ele>
        <time>2024-04-24T09:34:46Z</time>
      </trkpt>
      <trkpt lat="47.98491" lon="-0.41841">
        <ele>70</ele>
        <time>2024-04-24T09:34:47Z</time>
      </trkpt>
      <trkpt lat="47.98493" lon="-0.4184">
        <ele>70</ele>
        <time>2024-04-24T09:34:47Z</time>
      </trkpt>
      <trkpt lat="47.98497" lon="-0.41832">
        <ele>69</ele>
        <time>2024-04-24T09:34:48Z</time>
      </trkpt>
      <trkpt lat="47.98497" lon="-0.41815">
        <ele>69</ele>
        <time>2024-04-24T09:34:50Z</time>
      </trkpt>
      <trkpt lat="47.985" lon="-0.41798">
        <ele>69</ele>
        <time>2024-04-24T09:34:52Z</time>
      </trkpt>
      <trkpt lat="47.98519" lon="-0.4176">
        <ele>70</ele>
        <time>2024-04-24T09:34:58Z</time>
      </trkpt>
      <trkpt lat="47.98524" lon="-0.41714">
        <ele>70</ele>
        <time>2024-04-24T09:35:04Z</time>
      </trkpt>
      <trkpt lat="47.98525" lon="-0.41707">
        <ele>70</ele>
        <time>2024-04-24T09:35:04Z</time>
      </trkpt>
      <trkpt lat="47.98493" lon="-0.41672">
        <ele>67</ele>
        <time>2024-04-24T09:35:12Z</time>
      </trkpt>
      <trkpt lat="47.98486" lon="-0.41653">
        <ele>65</ele>
        <time>2024-04-24T09:35:14Z</time>
      </trkpt>
      <trkpt lat="47.98482" lon="-0.41633">
        <ele>63</ele>
        <time>2024-04-24T09:35:17Z</time>
      </trkpt>
      <trkpt lat="47.98477" lon="-0.41607">
        <ele>60</ele>
        <time>2024-04-24T09:35:20Z</time>
      </trkpt>
      <trkpt lat="47.98476" lon="-0.4159">
        <ele>59</ele>
        <time>2024-04-24T09:35:22Z</time>
      </trkpt>
      <trkpt lat="47.98475" lon="-0.4157">
        <ele>58</ele>
        <time>2024-04-24T09:35:24Z</time>
      </trkpt>
      <trkpt lat="47.98473" lon="-0.41544">
        <ele>57</ele>
        <time>2024-04-24T09:35:27Z</time>
      </trkpt>
      <trkpt lat="47.98472" lon="-0.41539">
        <ele>57</ele>
        <time>2024-04-24T09:35:28Z</time>
      </trkpt>
      <trkpt lat="47.9847" lon="-0.41534">
        <ele>57</ele>
        <time>2024-04-24T09:35:29Z</time>
      </trkpt>
      <trkpt lat="47.98494" lon="-0.41524">
        <ele>56</ele>
        <time>2024-04-24T09:35:33Z</time>
      </trkpt>
      <trkpt lat="47.98518" lon="-0.41526">
        <ele>57</ele>
        <time>2024-04-24T09:35:37Z</time>
      </trkpt>
      <trkpt lat="47.98543" lon="-0.41519">
        <ele>58</ele>
        <time>2024-04-24T09:35:42Z</time>
      </trkpt>
      <trkpt lat="47.98571" lon="-0.41491">
        <ele>57</ele>
        <time>2024-04-24T09:35:48Z</time>
      </trkpt>
      <trkpt lat="47.98577" lon="-0.41475">
        <ele>57</ele>
        <time>2024-04-24T09:35:50Z</time>
      </trkpt>
      <trkpt lat="47.98568" lon="-0.41445">
        <ele>56</ele>
        <time>2024-04-24T09:35:54Z</time>
      </trkpt>
      <trkpt lat="47.98572" lon="-0.41418">
        <ele>55</ele>
        <time>2024-04-24T09:35:57Z</time>
      </trkpt>
      <trkpt lat="47.98574" lon="-0.41413">
        <ele>55</ele>
        <time>2024-04-24T09:35:58Z</time>
      </trkpt>
      <trkpt lat="47.98576" lon="-0.41369">
        <ele>56</ele>
        <time>2024-04-24T09:36:03Z</time>
      </trkpt>
      <trkpt lat="47.98569" lon="-0.41322">
        <ele>57</ele>
        <time>2024-04-24T09:36:09Z</time>
      </trkpt>
      <trkpt lat="47.98564" lon="-0.41287">
        <ele>58</ele>
        <time>2024-04-24T09:36:13Z</time>
      </trkpt>
      <trkpt lat="47.98569" lon="-0.41226">
        <ele>59</ele>
        <time>2024-04-24T09:36:21Z</time>
      </trkpt>
      <trkpt lat="47.98568" lon="-0.41179">
        <ele>60</ele>
        <time>2024-04-24T09:36:26Z</time>
      </trkpt>
      <trkpt lat="47.98568" lon="-0.41077">
        <ele>63</ele>
        <time>2024-04-24T09:36:38Z</time>
      </trkpt>
      <trkpt lat="47.98571" lon="-0.40989">
        <ele>65</ele>
        <time>2024-04-24T09:36:49Z</time>
      </trkpt>
      <trkpt lat="47.98591" lon="-0.40913">
        <ele>65</ele>
        <time>2024-04-24T09:36:58Z</time>
      </trkpt>
      <trkpt lat="47.98608" lon="-0.40824">
        <ele>70</ele>
        <time>2024-04-24T09:37:10Z</time>
      </trkpt>
      <trkpt lat="47.98608" lon="-0.40823">
        <ele>70</ele>
        <time>2024-04-24T09:37:10Z</time>
      </trkpt>
      <trkpt lat="47.98597" lon="-0.40831">
        <ele>71</ele>
        <time>2024-04-24T09:37:12Z</time>
      </trkpt>
      <trkpt lat="47.98577" lon="-0.40862">
        <ele>73</ele>
        <time>2024-04-24T09:37:17Z</time>
      </trkpt>
      <trkpt lat="47.98549" lon="-0.40935">
        <ele>75</ele>
        <time>2024-04-24T09:37:27Z</time>
      </trkpt>
      <trkpt lat="47.98542" lon="-0.40958">
        <ele>75</ele>
        <time>2024-04-24T09:37:30Z</time>
      </trkpt>
      <trkpt lat="47.98539" lon="-0.4098">
        <ele>75</ele>
        <time>2024-04-24T09:37:33Z</time>
      </trkpt>
      <trkpt lat="47.98538" lon="-0.41037">
        <ele>72</ele>
        <time>2024-04-24T09:37:39Z</time>
      </trkpt>
      <trkpt lat="47.98535" lon="-0.41069">
        <ele>70</ele>
        <time>2024-04-24T09:37:43Z</time>
      </trkpt>
      <trkpt lat="47.98531" lon="-0.41089">
        <ele>70</ele>
        <time>2024-04-24T09:37:46Z</time>
      </trkpt>
      <trkpt lat="47.98524" lon="-0.41101">
        <ele>70</ele>
        <time>2024-04-24T09:37:48Z</time>
      </trkpt>
      <trkpt lat="47.98516" lon="-0.41107">
        <ele>70</ele>
        <time>2024-04-24T09:37:49Z</time>
      </trkpt>
      <trkpt lat="47.98507" lon="-0.41109">
        <ele>71</ele>
        <time>2024-04-24T09:37:51Z</time>
      </trkpt>
      <trkpt lat="47.98496" lon="-0.41104">
        <ele>73</ele>
        <time>2024-04-24T09:37:53Z</time>
      </trkpt>
      <trkpt lat="47.98407" lon="-0.40994">
        <ele>83</ele>
        <time>2024-04-24T09:38:13Z</time>
      </trkpt>
      <trkpt lat="47.98385" lon="-0.40954">
        <ele>85</ele>
        <time>2024-04-24T09:38:20Z</time>
      </trkpt>
      <trkpt lat="47.98362" lon="-0.40898">
        <ele>88</ele>
        <time>2024-04-24T09:38:27Z</time>
      </trkpt>
      <trkpt lat="47.98361" lon="-0.40896">
        <ele>88</ele>
        <time>2024-04-24T09:38:28Z</time>
      </trkpt>
      <trkpt lat="47.98368" lon="-0.40874">
        <ele>90</ele>
        <time>2024-04-24T09:38:31Z</time>
      </trkpt>
      <trkpt lat="47.98397" lon="-0.40831">
        <ele>93</ele>
        <time>2024-04-24T09:38:38Z</time>
      </trkpt>
      <trkpt lat="47.98396" lon="-0.40829">
        <ele>93</ele>
        <time>2024-04-24T09:38:38Z</time>
      </trkpt>
      <trkpt lat="47.98378" lon="-0.4079">
        <ele>94</ele>
        <time>2024-04-24T09:38:44Z</time>
      </trkpt>
      <trkpt lat="47.98344" lon="-0.40745">
        <ele>96</ele>
        <time>2024-04-24T09:38:52Z</time>
      </trkpt>
      <trkpt lat="47.98335" lon="-0.40743">
        <ele>97</ele>
        <time>2024-04-24T09:38:54Z</time>
      </trkpt>
      <trkpt lat="47.98335" lon="-0.40742">
        <ele>97</ele>
        <time>2024-04-24T09:38:54Z</time>
      </trkpt>
      <trkpt lat="47.98333" lon="-0.40753">
        <ele>97</ele>
        <time>2024-04-24T09:38:55Z</time>
      </trkpt>
      <trkpt lat="47.98329" lon="-0.4076">
        <ele>97</ele>
        <time>2024-04-24T09:38:56Z</time>
      </trkpt>
      <trkpt lat="47.98317" lon="-0.40768">
        <ele>96</ele>
        <time>2024-04-24T09:38:58Z</time>
      </trkpt>
      <trkpt lat="47.98185" lon="-0.40863">
        <ele>99</ele>
        <time>2024-04-24T09:39:25Z</time>
      </trkpt>
      <trkpt lat="47.98167" lon="-0.40875">
        <ele>100</ele>
        <time>2024-04-24T09:39:28Z</time>
      </trkpt>
      <trkpt lat="47.97996" lon="-0.40964">
        <ele>90</ele>
        <time>2024-04-24T09:40:00Z</time>
      </trkpt>
      <trkpt lat="47.97878" lon="-0.4103">
        <ele>83</ele>
        <time>2024-04-24T09:40:23Z</time>
      </trkpt>
      <trkpt lat="47.97835" lon="-0.41056">
        <ele>81</ele>
        <time>2024-04-24T09:40:31Z</time>
      </trkpt>
      <trkpt lat="47.97819" lon="-0.41071">
        <ele>80</ele>
        <time>2024-04-24T09:40:34Z</time>
      </trkpt>
      <trkpt lat="47.97803" lon="-0.41091">
        <ele>80</ele>
        <time>2024-04-24T09:40:38Z</time>
      </trkpt>
      <trkpt lat="47.97779" lon="-0.41136">
        <ele>79</ele>
        <time>2024-04-24T09:40:45Z</time>
      </trkpt>
      <trkpt lat="47.97649" lon="-0.4141">
        <ele>72</ele>
        <time>2024-04-24T09:41:25Z</time>
      </trkpt>
      <trkpt lat="47.9764" lon="-0.41415">
        <ele>72</ele>
        <time>2024-04-24T09:41:27Z</time>
      </trkpt>
      <trkpt lat="47.9764" lon="-0.41455">
        <ele>71</ele>
        <time>2024-04-24T09:41:31Z</time>
      </trkpt>
      <trkpt lat="47.97636" lon="-0.41477">
        <ele>71</ele>
        <time>2024-04-24T09:41:34Z</time>
      </trkpt>
      <trkpt lat="47.9763" lon="-0.41499">
        <ele>70</ele>
        <time>2024-04-24T09:41:37Z</time>
      </trkpt>
      <trkpt lat="47.97623" lon="-0.41516">
        <ele>70</ele>
        <time>2024-04-24T09:41:39Z</time>
      </trkpt>
      <trkpt lat="47.97614" lon="-0.41531">
        <ele>69</ele>
        <time>2024-04-24T09:41:42Z</time>
      </trkpt>
      <trkpt lat="47.97601" lon="-0.41545">
        <ele>68</ele>
        <time>2024-04-24T09:41:45Z</time>
      </trkpt>
      <trkpt lat="47.97589" lon="-0.41557">
        <ele>66</ele>
        <time>2024-04-24T09:41:47Z</time>
      </trkpt>
      <trkpt lat="47.97568" lon="-0.41568">
        <ele>64</ele>
        <time>2024-04-24T09:41:51Z</time>
      </trkpt>
      <trkpt lat="47.97551" lon="-0.41569">
        <ele>62</ele>
        <time>2024-04-24T09:41:54Z</time>
      </trkpt>
      <trkpt lat="47.97535" lon="-0.41564">
        <ele>61</ele>
        <time>2024-04-24T09:41:57Z</time>
      </trkpt>
      <trkpt lat="47.97514" lon="-0.41546">
        <ele>60</ele>
        <time>2024-04-24T09:42:01Z</time>
      </trkpt>
      <trkpt lat="47.97498" lon="-0.41523">
        <ele>60</ele>
        <time>2024-04-24T09:42:05Z</time>
      </trkpt>
      <trkpt lat="47.97479" lon="-0.41501">
        <ele>60</ele>
        <time>2024-04-24T09:42:10Z</time>
      </trkpt>
      <trkpt lat="47.97459" lon="-0.4149">
        <ele>60</ele>
        <time>2024-04-24T09:42:13Z</time>
      </trkpt>
      <trkpt lat="47.97441" lon="-0.41491">
        <ele>59</ele>
        <time>2024-04-24T09:42:17Z</time>
      </trkpt>
      <trkpt lat="47.97422" lon="-0.41495">
        <ele>58</ele>
        <time>2024-04-24T09:42:20Z</time>
      </trkpt>
      <trkpt lat="47.97402" lon="-0.41503">
        <ele>58</ele>
        <time>2024-04-24T09:42:24Z</time>
      </trkpt>
      <trkpt lat="47.97398" lon="-0.41505">
        <ele>57</ele>
        <time>2024-04-24T09:42:24Z</time>
      </trkpt>
      <trkpt lat="47.97387" lon="-0.41512">
        <ele>57</ele>
        <time>2024-04-24T09:42:27Z</time>
      </trkpt>
      <trkpt lat="47.97367" lon="-0.41532">
        <ele>57</ele>
        <time>2024-04-24T09:42:31Z</time>
      </trkpt>
      <trkpt lat="47.9735" lon="-0.41555">
        <ele>57</ele>
        <time>2024-04-24T09:42:35Z</time>
      </trkpt>
      <trkpt lat="47.97329" lon="-0.41594">
        <ele>58</ele>
        <time>2024-04-24T09:42:41Z</time>
      </trkpt>
      <trkpt lat="47.97304" lon="-0.41662">
        <ele>61</ele>
        <time>2024-04-24T09:42:50Z</time>
      </trkpt>
      <trkpt lat="47.97288" lon="-0.41723">
        <ele>64</ele>
        <time>2024-04-24T09:42:58Z</time>
      </trkpt>
      <trkpt lat="47.97282" lon="-0.41721">
        <ele>63</ele>
        <time>2024-04-24T09:42:59Z</time>
      </trkpt>
      <trkpt lat="47.97272" lon="-0.41723">
        <ele>62</ele>
        <time>2024-04-24T09:43:01Z</time>
      </trkpt>
      <trkpt lat="47.97245" lon="-0.41768">
        <ele>63</ele>
        <time>2024-04-24T09:43:08Z</time>
      </trkpt>
      <trkpt lat="47.97214" lon="-0.41813">
        <ele>62</ele>
        <time>2024-04-24T09:43:16Z</time>
      </trkpt>
      <trkpt lat="47.97167" lon="-0.41859">
        <ele>61</ele>
        <time>2024-04-24T09:43:26Z</time>
      </trkpt>
      <trkpt lat="47.97158" lon="-0.41858">
        <ele>62</ele>
        <time>2024-04-24T09:43:27Z</time>
      </trkpt>
      <trkpt lat="47.97145" lon="-0.41849">
        <ele>63</ele>
        <time>2024-04-24T09:43:30Z</time>
      </trkpt>
      <trkpt lat="47.97093" lon="-0.4178">
        <ele>62</ele>
        <time>2024-04-24T09:43:42Z</time>
      </trkpt>
      <trkpt lat="47.9706" lon="-0.41752">
        <ele>60</ele>
        <time>2024-04-24T09:43:49Z</time>
      </trkpt>
      <trkpt lat="47.9702" lon="-0.41737">
        <ele>60</ele>
        <time>2024-04-24T09:43:56Z</time>
      </trkpt>
      <trkpt lat="47.96977" lon="-0.41713">
        <ele>60</ele>
        <time>2024-04-24T09:44:04Z</time>
      </trkpt>
      <trkpt lat="47.96976" lon="-0.41699">
        <ele>58</ele>
        <time>2024-04-24T09:44:06Z</time>
      </trkpt>
      <trkpt lat="47.96977" lon="-0.41683">
        <ele>56</ele>
        <time>2024-04-24T09:44:08Z</time>
      </trkpt>
      <trkpt lat="47.96977" lon="-0.41673">
        <ele>55</ele>
        <time>2024-04-24T09:44:09Z</time>
      </trkpt>
      <trkpt lat="47.96982" lon="-0.41659">
        <ele>54</ele>
        <time>2024-04-24T09:44:11Z</time>
      </trkpt>
      <trkpt lat="47.96993" lon="-0.41642">
        <ele>55</ele>
        <time>2024-04-24T09:44:14Z</time>
      </trkpt>
      <trkpt lat="47.97001" lon="-0.41635">
        <ele>55</ele>
        <time>2024-04-24T09:44:16Z</time>
      </trkpt>
      <trkpt lat="47.97006" lon="-0.41626">
        <ele>56</ele>
        <time>2024-04-24T09:44:17Z</time>
      </trkpt>
      <trkpt lat="47.97005" lon="-0.41612">
        <ele>57</ele>
        <time>2024-04-24T09:44:19Z</time>
      </trkpt>
      <trkpt lat="47.96997" lon="-0.41582">
        <ele>59</ele>
        <time>2024-04-24T09:44:22Z</time>
      </trkpt>
      <trkpt lat="47.96989" lon="-0.41535">
        <ele>63</ele>
        <time>2024-04-24T09:44:28Z</time>
      </trkpt>
      <trkpt lat="47.96986" lon="-0.41491">
        <ele>66</ele>
        <time>2024-04-24T09:44:34Z</time>
      </trkpt>
      <trkpt lat="47.96968" lon="-0.41405">
        <ele>66</ele>
        <time>2024-04-24T09:44:44Z</time>
      </trkpt>
      <trkpt lat="47.96966" lon="-0.4138">
        <ele>66</ele>
        <time>2024-04-24T09:44:47Z</time>
      </trkpt>
      <trkpt lat="47.96957" lon="-0.41339">
        <ele>65</ele>
        <time>2024-04-24T09:44:52Z</time>
      </trkpt>
      <trkpt lat="47.96942" lon="-0.41296">
        <ele>64</ele>
        <time>2024-04-24T09:44:58Z</time>
      </trkpt>
      <trkpt lat="47.96911" lon="-0.4125">
        <ele>63</ele>
        <time>2024-04-24T09:45:06Z</time>
      </trkpt>
      <trkpt lat="47.9687" lon="-0.41164">
        <ele>65</ele>
        <time>2024-04-24T09:45:19Z</time>
      </trkpt>
      <trkpt lat="47.96849" lon="-0.41116">
        <ele>67</ele>
        <time>2024-04-24T09:45:25Z</time>
      </trkpt>
      <trkpt lat="47.96831" lon="-0.41081">
        <ele>69</ele>
        <time>2024-04-24T09:45:31Z</time>
      </trkpt>
      <trkpt lat="47.9681" lon="-0.41082">
        <ele>70</ele>
        <time>2024-04-24T09:45:34Z</time>
      </trkpt>
      <trkpt lat="47.96799" lon="-0.4108">
        <ele>71</ele>
        <time>2024-04-24T09:45:36Z</time>
      </trkpt>
      <trkpt lat="47.96792" lon="-0.41069">
        <ele>71</ele>
        <time>2024-04-24T09:45:38Z</time>
      </trkpt>
      <trkpt lat="47.96773" lon="-0.40996">
        <ele>74</ele>
        <time>2024-04-24T09:45:47Z</time>
      </trkpt>
      <trkpt lat="47.96758" lon="-0.40945">
        <ele>75</ele>
        <time>2024-04-24T09:45:54Z</time>
      </trkpt>
      <trkpt lat="47.96735" lon="-0.40885">
        <ele>75</ele>
        <time>2024-04-24T09:46:02Z</time>
      </trkpt>
      <trkpt lat="47.96724" lon="-0.40852">
        <ele>75</ele>
        <time>2024-04-24T09:46:07Z</time>
      </trkpt>
      <trkpt lat="47.96712" lon="-0.40791">
        <ele>73</ele>
        <time>2024-04-24T09:46:14Z</time>
      </trkpt>
      <trkpt lat="47.96713" lon="-0.40773">
        <ele>73</ele>
        <time>2024-04-24T09:46:16Z</time>
      </trkpt>
      <trkpt lat="47.96689" lon="-0.40507">
        <ele>68</ele>
        <time>2024-04-24T09:46:48Z</time>
      </trkpt>
      <trkpt lat="47.96645" lon="-0.40194">
        <ele>71</ele>
        <time>2024-04-24T09:47:27Z</time>
      </trkpt>
      <trkpt lat="47.96616" lon="-0.40084">
        <ele>73</ele>
        <time>2024-04-24T09:47:41Z</time>
      </trkpt>
      <trkpt lat="47.96582" lon="-0.39966">
        <ele>74</ele>
        <time>2024-04-24T09:47:56Z</time>
      </trkpt>
      <trkpt lat="47.96577" lon="-0.39969">
        <ele>74</ele>
        <time>2024-04-24T09:47:57Z</time>
      </trkpt>
      <trkpt lat="47.96461" lon="-0.40044">
        <ele>72</ele>
        <time>2024-04-24T09:48:19Z</time>
      </trkpt>
      <trkpt lat="47.96431" lon="-0.40067">
        <ele>70</ele>
        <time>2024-04-24T09:48:25Z</time>
      </trkpt>
      <trkpt lat="47.96356" lon="-0.40117">
        <ele>69</ele>
        <time>2024-04-24T09:48:40Z</time>
      </trkpt>
      <trkpt lat="47.96319" lon="-0.40149">
        <ele>69</ele>
        <time>2024-04-24T09:48:48Z</time>
      </trkpt>
      <trkpt lat="47.96265" lon="-0.40178">
        <ele>68</ele>
        <time>2024-04-24T09:48:58Z</time>
      </trkpt>
      <trkpt lat="47.96215" lon="-0.4023">
        <ele>68</ele>
        <time>2024-04-24T09:49:09Z</time>
      </trkpt>
      <trkpt lat="47.96171" lon="-0.40268">
        <ele>67</ele>
        <time>2024-04-24T09:49:18Z</time>
      </trkpt>
      <trkpt lat="47.96146" lon="-0.40282">
        <ele>68</ele>
        <time>2024-04-24T09:49:22Z</time>
      </trkpt>
      <trkpt lat="47.96112" lon="-0.4028">
        <ele>68</ele>
        <time>2024-04-24T09:49:29Z</time>
      </trkpt>
      <trkpt lat="47.96057" lon="-0.40285">
        <ele>69</ele>
        <time>2024-04-24T09:49:38Z</time>
      </trkpt>
      <trkpt lat="47.95986" lon="-0.4029">
        <ele>71</ele>
        <time>2024-04-24T09:49:51Z</time>
      </trkpt>
      <trkpt lat="47.95954" lon="-0.40298">
        <ele>71</ele>
        <time>2024-04-24T09:49:57Z</time>
      </trkpt>
      <trkpt lat="47.95925" lon="-0.40299">
        <ele>71</ele>
        <time>2024-04-24T09:50:02Z</time>
      </trkpt>
      <trkpt lat="47.95887" lon="-0.40295">
        <ele>70</ele>
        <time>2024-04-24T09:50:09Z</time>
      </trkpt>
      <trkpt lat="47.95817" lon="-0.40294">
        <ele>67</ele>
        <time>2024-04-24T09:50:21Z</time>
      </trkpt>
      <trkpt lat="47.95815" lon="-0.40283">
        <ele>67</ele>
        <time>2024-04-24T09:50:22Z</time>
      </trkpt>
      <trkpt lat="47.95808" lon="-0.40239">
        <ele>66</ele>
        <time>2024-04-24T09:50:28Z</time>
      </trkpt>
      <trkpt lat="47.95798" lon="-0.4013">
        <ele>65</ele>
        <time>2024-04-24T09:50:41Z</time>
      </trkpt>
      <trkpt lat="47.95797" lon="-0.39986">
        <ele>65</ele>
        <time>2024-04-24T09:50:58Z</time>
      </trkpt>
      <trkpt lat="47.95791" lon="-0.39939">
        <ele>65</ele>
        <time>2024-04-24T09:51:04Z</time>
      </trkpt>
      <trkpt lat="47.9579" lon="-0.39909">
        <ele>65</ele>
        <time>2024-04-24T09:51:07Z</time>
      </trkpt>
      <trkpt lat="47.95791" lon="-0.39897">
        <ele>65</ele>
        <time>2024-04-24T09:51:09Z</time>
      </trkpt>
      <trkpt lat="47.95795" lon="-0.39885">
        <ele>65</ele>
        <time>2024-04-24T09:51:10Z</time>
      </trkpt>
      <trkpt lat="47.95788" lon="-0.39885">
        <ele>65</ele>
        <time>2024-04-24T09:51:12Z</time>
      </trkpt>
      <trkpt lat="47.95782" lon="-0.39876">
        <ele>65</ele>
        <time>2024-04-24T09:51:13Z</time>
      </trkpt>
      <trkpt lat="47.95771" lon="-0.39831">
        <ele>66</ele>
        <time>2024-04-24T09:51:19Z</time>
      </trkpt>
      <trkpt lat="47.95766" lon="-0.398">
        <ele>66</ele>
        <time>2024-04-24T09:51:23Z</time>
      </trkpt>
      <trkpt lat="47.95757" lon="-0.39728">
        <ele>66</ele>
        <time>2024-04-24T09:51:31Z</time>
      </trkpt>
      <trkpt lat="47.95753" lon="-0.39696">
        <ele>67</ele>
        <time>2024-04-24T09:51:35Z</time>
      </trkpt>
      <trkpt lat="47.95745" lon="-0.39462">
        <ele>65</ele>
        <time>2024-04-24T09:52:03Z</time>
      </trkpt>
      <trkpt lat="47.95747" lon="-0.39434">
        <ele>65</ele>
        <time>2024-04-24T09:52:07Z</time>
      </trkpt>
      <trkpt lat="47.95752" lon="-0.39411">
        <ele>65</ele>
        <time>2024-04-24T09:52:09Z</time>
      </trkpt>
      <trkpt lat="47.95789" lon="-0.39325">
        <ele>65</ele>
        <time>2024-04-24T09:52:22Z</time>
      </trkpt>
      <trkpt lat="47.95789" lon="-0.39314">
        <ele>65</ele>
        <time>2024-04-24T09:52:23Z</time>
      </trkpt>
      <trkpt lat="47.9578" lon="-0.39225">
        <ele>65</ele>
        <time>2024-04-24T09:52:34Z</time>
      </trkpt>
      <trkpt lat="47.95775" lon="-0.39141">
        <ele>66</ele>
        <time>2024-04-24T09:52:44Z</time>
      </trkpt>
      <trkpt lat="47.95765" lon="-0.39039">
        <ele>65</ele>
        <time>2024-04-24T09:52:56Z</time>
      </trkpt>
      <trkpt lat="47.95766" lon="-0.39015">
        <ele>65</ele>
        <time>2024-04-24T09:52:59Z</time>
      </trkpt>
      <trkpt lat="47.95769" lon="-0.38993">
        <ele>66</ele>
        <time>2024-04-24T09:53:02Z</time>
      </trkpt>
      <trkpt lat="47.95774" lon="-0.38937">
        <ele>67</ele>
        <time>2024-04-24T09:53:08Z</time>
      </trkpt>
      <trkpt lat="47.95717" lon="-0.38924">
        <ele>67</ele>
        <time>2024-04-24T09:53:19Z</time>
      </trkpt>
      <trkpt lat="47.95548" lon="-0.38907">
        <ele>68</ele>
        <time>2024-04-24T09:53:49Z</time>
      </trkpt>
      <trkpt lat="47.95496" lon="-0.38897">
        <ele>68</ele>
        <time>2024-04-24T09:53:58Z</time>
      </trkpt>
      <trkpt lat="47.95471" lon="-0.38888">
        <ele>68</ele>
        <time>2024-04-24T09:54:03Z</time>
      </trkpt>
      <trkpt lat="47.95424" lon="-0.38866">
        <ele>68</ele>
        <time>2024-04-24T09:54:11Z</time>
      </trkpt>
      <trkpt lat="47.95408" lon="-0.38864">
        <ele>68</ele>
        <time>2024-04-24T09:54:14Z</time>
      </trkpt>
      <trkpt lat="47.95394" lon="-0.38868">
        <ele>68</ele>
        <time>2024-04-24T09:54:17Z</time>
      </trkpt>
      <trkpt lat="47.95327" lon="-0.38918">
        <ele>69</ele>
        <time>2024-04-24T09:54:30Z</time>
      </trkpt>
      <trkpt lat="47.95168" lon="-0.39044">
        <ele>73</ele>
        <time>2024-04-24T09:55:02Z</time>
      </trkpt>
      <trkpt lat="47.95111" lon="-0.39088">
        <ele>74</ele>
        <time>2024-04-24T09:55:14Z</time>
      </trkpt>
      <trkpt lat="47.94968" lon="-0.39164">
        <ele>74</ele>
        <time>2024-04-24T09:55:41Z</time>
      </trkpt>
      <trkpt lat="47.9443" lon="-0.39349">
        <ele>84</ele>
        <time>2024-04-24T09:57:19Z</time>
      </trkpt>
      <trkpt lat="47.94428" lon="-0.3935">
        <ele>84</ele>
        <time>2024-04-24T09:19:09Z</time>
      </trkpt>
      <trkpt lat="47.94422" lon="-0.39352">
        <ele>84</ele>
        <time>2024-04-24T09:19:10Z</time>
      </trkpt>
      <trkpt lat="47.94392" lon="-0.39208">
        <ele>82</ele>
        <time>2024-04-24T09:19:28Z</time>
      </trkpt>
      <trkpt lat="47.94391" lon="-0.3914">
        <ele>82</ele>
        <time>2024-04-24T09:19:36Z</time>
      </trkpt>
      <trkpt lat="47.94382" lon="-0.39084">
        <ele>81</ele>
        <time>2024-04-24T09:19:43Z</time>
      </trkpt>
      <trkpt lat="47.94372" lon="-0.39034">
        <ele>81</ele>
        <time>2024-04-24T09:19:49Z</time>
      </trkpt>
      <trkpt lat="47.94358" lon="-0.38969">
        <ele>81</ele>
        <time>2024-04-24T09:19:57Z</time>
      </trkpt>
      <trkpt lat="47.94354" lon="-0.38903">
        <ele>82</ele>
        <time>2024-04-24T09:20:05Z</time>
      </trkpt>
      <trkpt lat="47.94386" lon="-0.38796">
        <ele>82</ele>
        <time>2024-04-24T09:20:19Z</time>
      </trkpt>
      <trkpt lat="47.94414" lon="-0.38735">
        <ele>82</ele>
        <time>2024-04-24T09:20:28Z</time>
      </trkpt>
      <trkpt lat="47.94421" lon="-0.38712">
        <ele>82</ele>
        <time>2024-04-24T09:20:31Z</time>
      </trkpt>
      <trkpt lat="47.94424" lon="-0.38672">
        <ele>82</ele>
        <time>2024-04-24T09:20:36Z</time>
      </trkpt>
      <trkpt lat="47.94413" lon="-0.38573">
        <ele>82</ele>
        <time>2024-04-24T09:20:48Z</time>
      </trkpt>
      <trkpt lat="47.94409" lon="-0.38472">
        <ele>80</ele>
        <time>2024-04-24T09:21:00Z</time>
      </trkpt>
      <trkpt lat="47.94423" lon="-0.38363">
        <ele>80</ele>
        <time>2024-04-24T09:21:13Z</time>
      </trkpt>
      <trkpt lat="47.94476" lon="-0.38166">
        <ele>79</ele>
        <time>2024-04-24T09:21:38Z</time>
      </trkpt>
      <trkpt lat="47.94316" lon="-0.38251">
        <ele>81</ele>
        <time>2024-04-24T09:22:09Z</time>
      </trkpt>
      <trkpt lat="47.94268" lon="-0.38287">
        <ele>82</ele>
        <time>2024-04-24T09:22:18Z</time>
      </trkpt>
      <trkpt lat="47.94239" lon="-0.38303">
        <ele>82</ele>
        <time>2024-04-24T09:22:24Z</time>
      </trkpt>
      <trkpt lat="47.94166" lon="-0.38367">
        <ele>84</ele>
        <time>2024-04-24T09:22:39Z</time>
      </trkpt>
      <trkpt lat="47.93986" lon="-0.38505">
        <ele>90</ele>
        <time>2024-04-24T09:23:15Z</time>
      </trkpt>
      <trkpt lat="47.93952" lon="-0.38531">
        <ele>92</ele>
        <time>2024-04-24T09:23:22Z</time>
      </trkpt>
      <trkpt lat="47.93908" lon="-0.38536">
        <ele>93</ele>
        <time>2024-04-24T09:23:29Z</time>
      </trkpt>
      <trkpt lat="47.9389" lon="-0.3853">
        <ele>93</ele>
        <time>2024-04-24T09:23:33Z</time>
      </trkpt>
      <trkpt lat="47.93845" lon="-0.38497">
        <ele>94</ele>
        <time>2024-04-24T09:23:42Z</time>
      </trkpt>
      <trkpt lat="47.93792" lon="-0.38467">
        <ele>92</ele>
        <time>2024-04-24T09:23:52Z</time>
      </trkpt>
      <trkpt lat="47.93787" lon="-0.38458">
        <ele>92</ele>
        <time>2024-04-24T09:23:53Z</time>
      </trkpt>
      <trkpt lat="47.9378" lon="-0.38431">
        <ele>91</ele>
        <time>2024-04-24T09:23:57Z</time>
      </trkpt>
      <trkpt lat="47.93768" lon="-0.38411">
        <ele>91</ele>
        <time>2024-04-24T09:24:00Z</time>
      </trkpt>
      <trkpt lat="47.93696" lon="-0.38364">
        <ele>89</ele>
        <time>2024-04-24T09:24:14Z</time>
      </trkpt>
      <trkpt lat="47.93662" lon="-0.3833">
        <ele>89</ele>
        <time>2024-04-24T09:24:21Z</time>
      </trkpt>
      <trkpt lat="47.93658" lon="-0.38319">
        <ele>89</ele>
        <time>2024-04-24T09:24:23Z</time>
      </trkpt>
      <trkpt lat="47.93581" lon="-0.38164">
        <ele>86</ele>
        <time>2024-04-24T09:24:46Z</time>
      </trkpt>
      <trkpt lat="47.93515" lon="-0.38057">
        <ele>85</ele>
        <time>2024-04-24T09:25:03Z</time>
      </trkpt>
      <trkpt lat="47.93472" lon="-0.37997">
        <ele>84</ele>
        <time>2024-04-24T09:25:13Z</time>
      </trkpt>
      <trkpt lat="47.93432" lon="-0.37931">
        <ele>84</ele>
        <time>2024-04-24T09:25:24Z</time>
      </trkpt>
      <trkpt lat="47.93403" lon="-0.37895">
        <ele>84</ele>
        <time>2024-04-24T09:25:31Z</time>
      </trkpt>
      <trkpt lat="47.93383" lon="-0.37883">
        <ele>84</ele>
        <time>2024-04-24T09:25:34Z</time>
      </trkpt>
      <trkpt lat="47.93343" lon="-0.37878">
        <ele>83</ele>
        <time>2024-04-24T09:25:42Z</time>
      </trkpt>
      <trkpt lat="47.93297" lon="-0.37837">
        <ele>82</ele>
        <time>2024-04-24T09:25:51Z</time>
      </trkpt>
      <trkpt lat="47.93281" lon="-0.37829">
        <ele>82</ele>
        <time>2024-04-24T09:25:54Z</time>
      </trkpt>
      <trkpt lat="47.9322" lon="-0.37828">
        <ele>83</ele>
        <time>2024-04-24T09:26:05Z</time>
      </trkpt>
      <trkpt lat="47.93213" lon="-0.37828">
        <ele>84</ele>
        <time>2024-04-24T09:26:06Z</time>
      </trkpt>
      <trkpt lat="47.93204" lon="-0.37848">
        <ele>84</ele>
        <time>2024-04-24T09:26:09Z</time>
      </trkpt>
      <trkpt lat="47.93188" lon="-0.37875">
        <ele>83</ele>
        <time>2024-04-24T09:26:13Z</time>
      </trkpt>
      <trkpt lat="47.93118" lon="-0.37986">
        <ele>81</ele>
        <time>2024-04-24T09:26:32Z</time>
      </trkpt>
      <trkpt lat="47.93097" lon="-0.38051">
        <ele>79</ele>
        <time>2024-04-24T09:26:40Z</time>
      </trkpt>
      <trkpt lat="47.93078" lon="-0.381">
        <ele>78</ele>
        <time>2024-04-24T09:26:47Z</time>
      </trkpt>
      <trkpt lat="47.93027" lon="-0.38203">
        <ele>74</ele>
        <time>2024-04-24T09:27:02Z</time>
      </trkpt>
      <trkpt lat="47.9302" lon="-0.38221">
        <ele>74</ele>
        <time>2024-04-24T09:27:05Z</time>
      </trkpt>
      <trkpt lat="47.93019" lon="-0.38233">
        <ele>74</ele>
        <time>2024-04-24T09:27:06Z</time>
      </trkpt>
      <trkpt lat="47.9302" lon="-0.38244">
        <ele>73</ele>
        <time>2024-04-24T09:27:07Z</time>
      </trkpt>
      <trkpt lat="47.93025" lon="-0.3826">
        <ele>73</ele>
        <time>2024-04-24T09:27:10Z</time>
      </trkpt>
      <trkpt lat="47.93059" lon="-0.38322">
        <ele>73</ele>
        <time>2024-04-24T09:27:19Z</time>
      </trkpt>
      <trkpt lat="47.93079" lon="-0.38386">
        <ele>74</ele>
        <time>2024-04-24T09:27:28Z</time>
      </trkpt>
      <trkpt lat="47.93087" lon="-0.38427">
        <ele>74</ele>
        <time>2024-04-24T09:27:33Z</time>
      </trkpt>
      <trkpt lat="47.93093" lon="-0.38498">
        <ele>72</ele>
        <time>2024-04-24T09:27:41Z</time>
      </trkpt>
      <trkpt lat="47.93092" lon="-0.38544">
        <ele>71</ele>
        <time>2024-04-24T09:27:47Z</time>
      </trkpt>
      <trkpt lat="47.93089" lon="-0.38578">
        <ele>70</ele>
        <time>2024-04-24T09:27:51Z</time>
      </trkpt>
      <trkpt lat="47.93091" lon="-0.38601">
        <ele>70</ele>
        <time>2024-04-24T09:27:54Z</time>
      </trkpt>
      <trkpt lat="47.93097" lon="-0.38634">
        <ele>70</ele>
        <time>2024-04-24T09:27:58Z</time>
      </trkpt>
      <trkpt lat="47.93099" lon="-0.38711">
        <ele>70</ele>
        <time>2024-04-24T09:28:07Z</time>
      </trkpt>
      <trkpt lat="47.93095" lon="-0.38754">
        <ele>70</ele>
        <time>2024-04-24T09:28:12Z</time>
      </trkpt>
      <trkpt lat="47.93067" lon="-0.3887">
        <ele>70</ele>
        <time>2024-04-24T09:28:27Z</time>
      </trkpt>
      <trkpt lat="47.93068" lon="-0.38875">
        <ele>70</ele>
        <time>2024-04-24T09:28:27Z</time>
      </trkpt>
      <trkpt lat="47.93075" lon="-0.38928">
        <ele>70</ele>
        <time>2024-04-24T09:28:34Z</time>
      </trkpt>
      <trkpt lat="47.93091" lon="-0.3899">
        <ele>71</ele>
        <time>2024-04-24T09:28:42Z</time>
      </trkpt>
      <trkpt lat="47.93109" lon="-0.39023">
        <ele>72</ele>
        <time>2024-04-24T09:28:47Z</time>
      </trkpt>
      <trkpt lat="47.93129" lon="-0.39052">
        <ele>73</ele>
        <time>2024-04-24T09:28:52Z</time>
      </trkpt>
      <trkpt lat="47.93162" lon="-0.39079">
        <ele>74</ele>
        <time>2024-04-24T09:28:58Z</time>
      </trkpt>
      <trkpt lat="47.932" lon="-0.39099">
        <ele>75</ele>
        <time>2024-04-24T09:29:06Z</time>
      </trkpt>
      <trkpt lat="47.93209" lon="-0.39106">
        <ele>75</ele>
        <time>2024-04-24T09:29:07Z</time>
      </trkpt>
      <trkpt lat="47.9322" lon="-0.39114">
        <ele>75</ele>
        <time>2024-04-24T09:29:10Z</time>
      </trkpt>
      <trkpt lat="47.93232" lon="-0.39133">
        <ele>75</ele>
        <time>2024-04-24T09:29:13Z</time>
      </trkpt>
      <trkpt lat="47.9324" lon="-0.39149">
        <ele>76</ele>
        <time>2024-04-24T09:29:15Z</time>
      </trkpt>
      <trkpt lat="47.93242" lon="-0.39167">
        <ele>76</ele>
        <time>2024-04-24T09:29:17Z</time>
      </trkpt>
      <trkpt lat="47.9324" lon="-0.39195">
        <ele>76</ele>
        <time>2024-04-24T09:29:21Z</time>
      </trkpt>
      <trkpt lat="47.93237" lon="-0.3921">
        <ele>76</ele>
        <time>2024-04-24T09:29:22Z</time>
      </trkpt>
      <trkpt lat="47.93232" lon="-0.39222">
        <ele>76</ele>
        <time>2024-04-24T09:29:24Z</time>
      </trkpt>
      <trkpt lat="47.93208" lon="-0.39248">
        <ele>76</ele>
        <time>2024-04-24T09:29:29Z</time>
      </trkpt>
      <trkpt lat="47.93179" lon="-0.3928">
        <ele>76</ele>
        <time>2024-04-24T09:29:36Z</time>
      </trkpt>
      <trkpt lat="47.93153" lon="-0.39311">
        <ele>75</ele>
        <time>2024-04-24T09:29:42Z</time>
      </trkpt>
      <trkpt lat="47.93149" lon="-0.3932">
        <ele>75</ele>
        <time>2024-04-24T09:29:43Z</time>
      </trkpt>
      <trkpt lat="47.93144" lon="-0.39331">
        <ele>75</ele>
        <time>2024-04-24T09:29:45Z</time>
      </trkpt>
      <trkpt lat="47.93138" lon="-0.39352">
        <ele>74</ele>
        <time>2024-04-24T09:29:47Z</time>
      </trkpt>
      <trkpt lat="47.93088" lon="-0.39748">
        <ele>62</ele>
        <time>2024-04-24T09:30:35Z</time>
      </trkpt>
      <trkpt lat="47.93075" lon="-0.39887">
        <ele>56</ele>
        <time>2024-04-24T09:30:52Z</time>
      </trkpt>
      <trkpt lat="47.93061" lon="-0.39957">
        <ele>52</ele>
        <time>2024-04-24T09:31:01Z</time>
      </trkpt>
      <trkpt lat="47.93063" lon="-0.39959">
        <ele>52</ele>
        <time>2024-04-24T09:31:01Z</time>
      </trkpt>
      <trkpt lat="47.93108" lon="-0.40003">
        <ele>49</ele>
        <time>2024-04-24T09:31:11Z</time>
      </trkpt>
      <trkpt lat="47.93157" lon="-0.40063">
        <ele>49</ele>
        <time>2024-04-24T09:31:22Z</time>
      </trkpt>
      <trkpt lat="47.93205" lon="-0.40125">
        <ele>49</ele>
        <time>2024-04-24T09:31:33Z</time>
      </trkpt>
      <trkpt lat="47.93216" lon="-0.40149">
        <ele>48</ele>
        <time>2024-04-24T09:31:37Z</time>
      </trkpt>
      <trkpt lat="47.93235" lon="-0.40264">
        <ele>48</ele>
        <time>2024-04-24T09:31:51Z</time>
      </trkpt>
      <trkpt lat="47.93233" lon="-0.40313">
        <ele>48</ele>
        <time>2024-04-24T09:31:57Z</time>
      </trkpt>
      <trkpt lat="47.93222" lon="-0.40425">
        <ele>47</ele>
        <time>2024-04-24T09:32:10Z</time>
      </trkpt>
      <trkpt lat="47.93222" lon="-0.40486">
        <ele>48</ele>
        <time>2024-04-24T09:32:18Z</time>
      </trkpt>
      <trkpt lat="47.93196" lon="-0.40709">
        <ele>51</ele>
        <time>2024-04-24T09:32:45Z</time>
      </trkpt>
      <trkpt lat="47.93194" lon="-0.4075">
        <ele>51</ele>
        <time>2024-04-24T09:32:49Z</time>
      </trkpt>
      <trkpt lat="47.93195" lon="-0.40786">
        <ele>52</ele>
        <time>2024-04-24T09:32:54Z</time>
      </trkpt>
      <trkpt lat="47.932" lon="-0.40844">
        <ele>52</ele>
        <time>2024-04-24T09:33:01Z</time>
      </trkpt>
      <trkpt lat="47.93213" lon="-0.40905">
        <ele>53</ele>
        <time>2024-04-24T09:33:08Z</time>
      </trkpt>
      <trkpt lat="47.9322" lon="-0.40942">
        <ele>53</ele>
        <time>2024-04-24T09:33:13Z</time>
      </trkpt>
      <trkpt lat="47.93223" lon="-0.40977">
        <ele>52</ele>
        <time>2024-04-24T09:33:17Z</time>
      </trkpt>
      <trkpt lat="47.93223" lon="-0.41036">
        <ele>50</ele>
        <time>2024-04-24T09:33:24Z</time>
      </trkpt>
      <trkpt lat="47.93225" lon="-0.41071">
        <ele>49</ele>
        <time>2024-04-24T09:33:28Z</time>
      </trkpt>
      <trkpt lat="47.93231" lon="-0.41092">
        <ele>48</ele>
        <time>2024-04-24T09:33:31Z</time>
      </trkpt>
      <trkpt lat="47.93283" lon="-0.41191">
        <ele>46</ele>
        <time>2024-04-24T09:33:46Z</time>
      </trkpt>
      <trkpt lat="47.93297" lon="-0.41229">
        <ele>46</ele>
        <time>2024-04-24T09:33:51Z</time>
      </trkpt>
      <trkpt lat="47.93306" lon="-0.41289">
        <ele>45</ele>
        <time>2024-04-24T09:33:59Z</time>
      </trkpt>
      <trkpt lat="47.93319" lon="-0.41354">
        <ele>44</ele>
        <time>2024-04-24T09:34:07Z</time>
      </trkpt>
      <trkpt lat="47.93337" lon="-0.41425">
        <ele>44</ele>
        <time>2024-04-24T09:34:16Z</time>
      </trkpt>
      <trkpt lat="47.93363" lon="-0.41496">
        <ele>45</ele>
        <time>2024-04-24T09:34:25Z</time>
      </trkpt>
      <trkpt lat="47.93399" lon="-0.41565">
        <ele>46</ele>
        <time>2024-04-24T09:34:36Z</time>
      </trkpt>
      <trkpt lat="47.93446" lon="-0.41649">
        <ele>46</ele>
        <time>2024-04-24T09:34:49Z</time>
      </trkpt>
      <trkpt lat="47.93443" lon="-0.41651">
        <ele>46</ele>
        <time>2024-04-24T09:34:49Z</time>
      </trkpt>
      <trkpt lat="47.9338" lon="-0.41715">
        <ele>48</ele>
        <time>2024-04-24T09:35:03Z</time>
      </trkpt>
      <trkpt lat="47.93367" lon="-0.41728">
        <ele>49</ele>
        <time>2024-04-24T09:35:06Z</time>
      </trkpt>
      <trkpt lat="47.93327" lon="-0.41771">
        <ele>51</ele>
        <time>2024-04-24T09:35:15Z</time>
      </trkpt>
      <trkpt lat="47.93294" lon="-0.41687">
        <ele>49</ele>
        <time>2024-04-24T09:35:26Z</time>
      </trkpt>
      <trkpt lat="47.93249" lon="-0.41749">
        <ele>51</ele>
        <time>2024-04-24T09:35:37Z</time>
      </trkpt>
      <trkpt lat="47.93211" lon="-0.41798">
        <ele>51</ele>
        <time>2024-04-24T09:35:46Z</time>
      </trkpt>
      <trkpt lat="47.93209" lon="-0.4181">
        <ele>51</ele>
        <time>2024-04-24T09:35:47Z</time>
      </trkpt>
      <trkpt lat="47.93211" lon="-0.41846">
        <ele>52</ele>
        <time>2024-04-24T09:35:52Z</time>
      </trkpt>
      <trkpt lat="47.9321" lon="-0.41854">
        <ele>52</ele>
        <time>2024-04-24T09:35:53Z</time>
      </trkpt>
      <trkpt lat="47.93184" lon="-0.41929">
        <ele>54</ele>
        <time>2024-04-24T09:36:03Z</time>
      </trkpt>
      <trkpt lat="47.93138" lon="-0.4209">
        <ele>55</ele>
        <time>2024-04-24T09:36:24Z</time>
      </trkpt>
      <trkpt lat="47.93133" lon="-0.42107">
        <ele>55</ele>
        <time>2024-04-24T09:36:26Z</time>
      </trkpt>
      <trkpt lat="47.93126" lon="-0.42141">
        <ele>56</ele>
        <time>2024-04-24T09:36:30Z</time>
      </trkpt>
      <trkpt lat="47.93125" lon="-0.42147">
        <ele>56</ele>
        <time>2024-04-24T09:36:31Z</time>
      </trkpt>
      <trkpt lat="47.93119" lon="-0.42163">
        <ele>57</ele>
        <time>2024-04-24T09:36:33Z</time>
      </trkpt>
      <trkpt lat="47.93099" lon="-0.42193">
        <ele>58</ele>
        <time>2024-04-24T09:36:38Z</time>
      </trkpt>
      <trkpt lat="47.93011" lon="-0.42333">
        <ele>62</ele>
        <time>2024-04-24T09:37:01Z</time>
      </trkpt>
      <trkpt lat="47.92972" lon="-0.4242">
        <ele>65</ele>
        <time>2024-04-24T09:37:13Z</time>
      </trkpt>
      <trkpt lat="47.9296" lon="-0.42428">
        <ele>65</ele>
        <time>2024-04-24T09:37:16Z</time>
      </trkpt>
      <trkpt lat="47.92906" lon="-0.42449">
        <ele>66</ele>
        <time>2024-04-24T09:37:26Z</time>
      </trkpt>
      <trkpt lat="47.9288" lon="-0.42472">
        <ele>67</ele>
        <time>2024-04-24T09:37:31Z</time>
      </trkpt>
      <trkpt lat="47.92857" lon="-0.42531">
        <ele>70</ele>
        <time>2024-04-24T09:37:39Z</time>
      </trkpt>
      <trkpt lat="47.92824" lon="-0.42627">
        <ele>73</ele>
        <time>2024-04-24T09:37:52Z</time>
      </trkpt>
      <trkpt lat="47.92809" lon="-0.42646">
        <ele>73</ele>
        <time>2024-04-24T09:37:56Z</time>
      </trkpt>
      <trkpt lat="47.92783" lon="-0.42649">
        <ele>73</ele>
        <time>2024-04-24T09:38:00Z</time>
      </trkpt>
      <trkpt lat="47.92767" lon="-0.42654">
        <ele>73</ele>
        <time>2024-04-24T09:38:03Z</time>
      </trkpt>
      <trkpt lat="47.9274" lon="-0.4267">
        <ele>73</ele>
        <time>2024-04-24T09:38:08Z</time>
      </trkpt>
      <trkpt lat="47.92722" lon="-0.4267">
        <ele>73</ele>
        <time>2024-04-24T09:38:11Z</time>
      </trkpt>
      <trkpt lat="47.92692" lon="-0.42657">
        <ele>73</ele>
        <time>2024-04-24T09:38:17Z</time>
      </trkpt>
      <trkpt lat="47.92674" lon="-0.42656">
        <ele>73</ele>
        <time>2024-04-24T09:38:20Z</time>
      </trkpt>
      <trkpt lat="47.92655" lon="-0.42663">
        <ele>73</ele>
        <time>2024-04-24T09:38:24Z</time>
      </trkpt>
      <trkpt lat="47.9259" lon="-0.42709">
        <ele>70</ele>
        <time>2024-04-24T09:38:37Z</time>
      </trkpt>
      <trkpt lat="47.92469" lon="-0.42806">
        <ele>68</ele>
        <time>2024-04-24T09:39:01Z</time>
      </trkpt>
      <trkpt lat="47.92412" lon="-0.42858">
        <ele>68</ele>
        <time>2024-04-24T09:39:13Z</time>
      </trkpt>
      <trkpt lat="47.92292" lon="-0.42906">
        <ele>65</ele>
        <time>2024-04-24T09:39:35Z</time>
      </trkpt>
      <trkpt lat="47.92172" lon="-0.42958">
        <ele>64</ele>
        <time>2024-04-24T09:39:57Z</time>
      </trkpt>
      <trkpt lat="47.92109" lon="-0.4299">
        <ele>65</ele>
        <time>2024-04-24T09:40:09Z</time>
      </trkpt>
      <trkpt lat="47.92107" lon="-0.42992">
        <ele>65</ele>
        <time>2024-04-24T09:40:09Z</time>
      </trkpt>
      <trkpt lat="47.9211" lon="-0.42996">
        <ele>65</ele>
        <time>2024-04-24T09:40:10Z</time>
      </trkpt>
      <trkpt lat="47.92119" lon="-0.43035">
        <ele>65</ele>
        <time>2024-04-24T09:40:15Z</time>
      </trkpt>
      <trkpt lat="47.92142" lon="-0.43095">
        <ele>65</ele>
        <time>2024-04-24T09:40:23Z</time>
      </trkpt>
      <trkpt lat="47.92175" lon="-0.43205">
        <ele>67</ele>
        <time>2024-04-24T09:40:38Z</time>
      </trkpt>
      <trkpt lat="47.92188" lon="-0.4326">
        <ele>68</ele>
        <time>2024-04-24T09:40:45Z</time>
      </trkpt>
      <trkpt lat="47.92193" lon="-0.43285">
        <ele>68</ele>
        <time>2024-04-24T09:40:48Z</time>
      </trkpt>
      <trkpt lat="47.92198" lon="-0.43335">
        <ele>67</ele>
        <time>2024-04-24T09:40:54Z</time>
      </trkpt>
      <trkpt lat="47.92206" lon="-0.43385">
        <ele>67</ele>
        <time>2024-04-24T09:41:00Z</time>
      </trkpt>
      <trkpt lat="47.9221" lon="-0.43419">
        <ele>67</ele>
        <time>2024-04-24T09:41:04Z</time>
      </trkpt>
      <trkpt lat="47.92217" lon="-0.43461">
        <ele>67</ele>
        <time>2024-04-24T09:41:09Z</time>
      </trkpt>
      <trkpt lat="47.92223" lon="-0.43484">
        <ele>67</ele>
        <time>2024-04-24T09:41:12Z</time>
      </trkpt>
      <trkpt lat="47.92247" lon="-0.43556">
        <ele>68</ele>
        <time>2024-04-24T09:41:22Z</time>
      </trkpt>
      <trkpt lat="47.92282" lon="-0.43633">
        <ele>68</ele>
        <time>2024-04-24T09:41:33Z</time>
      </trkpt>
      <trkpt lat="47.92339" lon="-0.43777">
        <ele>67</ele>
        <time>2024-04-24T09:41:53Z</time>
      </trkpt>
      <trkpt lat="47.92341" lon="-0.43791">
        <ele>67</ele>
        <time>2024-04-24T09:41:54Z</time>
      </trkpt>
      <trkpt lat="47.9234" lon="-0.438">
        <ele>67</ele>
        <time>2024-04-24T09:41:56Z</time>
      </trkpt>
      <trkpt lat="47.92337" lon="-0.43803">
        <ele>67</ele>
        <time>2024-04-24T09:41:56Z</time>
      </trkpt>
      <trkpt lat="47.92215" lon="-0.4389">
        <ele>63</ele>
        <time>2024-04-24T09:42:20Z</time>
      </trkpt>
      <trkpt lat="47.92211" lon="-0.43895">
        <ele>63</ele>
        <time>2024-04-24T09:42:21Z</time>
      </trkpt>
      <trkpt lat="47.92208" lon="-0.43905">
        <ele>62</ele>
        <time>2024-04-24T09:42:23Z</time>
      </trkpt>
      <trkpt lat="47.92209" lon="-0.43911">
        <ele>62</ele>
        <time>2024-04-24T09:42:23Z</time>
      </trkpt>
      <trkpt lat="47.92227" lon="-0.43966">
        <ele>62</ele>
        <time>2024-04-24T09:42:31Z</time>
      </trkpt>
      <trkpt lat="47.9226" lon="-0.44109">
        <ele>62</ele>
        <time>2024-04-24T09:42:49Z</time>
      </trkpt>
      <trkpt lat="47.92327" lon="-0.44333">
        <ele>62</ele>
        <time>2024-04-24T09:43:18Z</time>
      </trkpt>
      <trkpt lat="47.92346" lon="-0.44376">
        <ele>60</ele>
        <time>2024-04-24T09:43:24Z</time>
      </trkpt>
      <trkpt lat="47.92362" lon="-0.444">
        <ele>59</ele>
        <time>2024-04-24T09:43:28Z</time>
      </trkpt>
      <trkpt lat="47.92369" lon="-0.44403">
        <ele>59</ele>
        <time>2024-04-24T09:43:29Z</time>
      </trkpt>
      <trkpt lat="47.92372" lon="-0.44401">
        <ele>59</ele>
        <time>2024-04-24T09:43:30Z</time>
      </trkpt>
      <trkpt lat="47.92366" lon="-0.44392">
        <ele>59</ele>
        <time>2024-04-24T09:43:31Z</time>
      </trkpt>
      <trkpt lat="47.92372" lon="-0.44401">
        <ele>59</ele>
        <time>2024-04-24T09:43:33Z</time>
      </trkpt>
      <trkpt lat="47.92391" lon="-0.44379">
        <ele>59</ele>
        <time>2024-04-24T09:43:37Z</time>
      </trkpt>
      <trkpt lat="47.92455" lon="-0.44335">
        <ele>58</ele>
        <time>2024-04-24T09:43:50Z</time>
      </trkpt>
      <trkpt lat="47.92535" lon="-0.4421">
        <ele>59</ele>
        <time>2024-04-24T09:44:10Z</time>
      </trkpt>
      <trkpt lat="47.92551" lon="-0.44191">
        <ele>58</ele>
        <time>2024-04-24T09:44:14Z</time>
      </trkpt>
      <trkpt lat="47.92562" lon="-0.44191">
        <ele>58</ele>
        <time>2024-04-24T09:44:16Z</time>
      </trkpt>
      <trkpt lat="47.92569" lon="-0.44202">
        <ele>57</ele>
        <time>2024-04-24T09:44:18Z</time>
      </trkpt>
      <trkpt lat="47.92607" lon="-0.44324">
        <ele>52</ele>
        <time>2024-04-24T09:44:34Z</time>
      </trkpt>
      <trkpt lat="47.92611" lon="-0.44339">
        <ele>52</ele>
        <time>2024-04-24T09:44:36Z</time>
      </trkpt>
      <trkpt lat="47.92616" lon="-0.44353">
        <ele>52</ele>
        <time>2024-04-24T09:44:38Z</time>
      </trkpt>
      <trkpt lat="47.92579" lon="-0.44485">
        <ele>51</ele>
        <time>2024-04-24T09:44:55Z</time>
      </trkpt>
      <trkpt lat="47.92568" lon="-0.44525">
        <ele>52</ele>
        <time>2024-04-24T09:45:00Z</time>
      </trkpt>
      <trkpt lat="47.92542" lon="-0.44581">
        <ele>52</ele>
        <time>2024-04-24T09:45:08Z</time>
      </trkpt>
      <trkpt lat="47.92457" lon="-0.44678">
        <ele>51</ele>
        <time>2024-04-24T09:45:27Z</time>
      </trkpt>
      <trkpt lat="47.92446" lon="-0.44708">
        <ele>52</ele>
        <time>2024-04-24T09:45:31Z</time>
      </trkpt>
      <trkpt lat="47.92443" lon="-0.44747">
        <ele>53</ele>
        <time>2024-04-24T09:45:36Z</time>
      </trkpt>
      <trkpt lat="47.92459" lon="-0.44868">
        <ele>57</ele>
        <time>2024-04-24T09:45:50Z</time>
      </trkpt>
      <trkpt lat="47.92464" lon="-0.44941">
        <ele>59</ele>
        <time>2024-04-24T09:45:59Z</time>
      </trkpt>
      <trkpt lat="47.92456" lon="-0.45004">
        <ele>60</ele>
        <time>2024-04-24T09:46:07Z</time>
      </trkpt>
      <trkpt lat="47.92367" lon="-0.45352">
        <ele>69</ele>
        <time>2024-04-24T09:46:51Z</time>
      </trkpt>
      <trkpt lat="47.92327" lon="-0.45426">
        <ele>69</ele>
        <time>2024-04-24T09:47:03Z</time>
      </trkpt>
      <trkpt lat="47.9233" lon="-0.45429">
        <ele>69</ele>
        <time>2024-04-24T09:47:03Z</time>
      </trkpt>
      <trkpt lat="47.92387" lon="-0.45477">
        <ele>70</ele>
        <time>2024-04-24T09:47:15Z</time>
      </trkpt>
      <trkpt lat="47.92502" lon="-0.45596">
        <ele>72</ele>
        <time>2024-04-24T09:47:40Z</time>
      </trkpt>
      <trkpt lat="47.92667" lon="-0.45774">
        <ele>71</ele>
        <time>2024-04-24T09:48:16Z</time>
      </trkpt>
      <trkpt lat="47.92881" lon="-0.45991">
        <ele>71</ele>
        <time>2024-04-24T09:49:02Z</time>
      </trkpt>
      <trkpt lat="47.92907" lon="-0.4601">
        <ele>70</ele>
        <time>2024-04-24T09:49:07Z</time>
      </trkpt>
      <trkpt lat="47.92932" lon="-0.46014">
        <ele>69</ele>
        <time>2024-04-24T09:49:12Z</time>
      </trkpt>
      <trkpt lat="47.92985" lon="-0.46016">
        <ele>65</ele>
        <time>2024-04-24T09:49:21Z</time>
      </trkpt>
      <trkpt lat="47.93015" lon="-0.46021">
        <ele>64</ele>
        <time>2024-04-24T09:49:26Z</time>
      </trkpt>
      <trkpt lat="47.93047" lon="-0.46037">
        <ele>62</ele>
        <time>2024-04-24T09:49:32Z</time>
      </trkpt>
      <trkpt lat="47.93106" lon="-0.46072">
        <ele>58</ele>
        <time>2024-04-24T09:49:44Z</time>
      </trkpt>
      <trkpt lat="47.9314" lon="-0.46116">
        <ele>57</ele>
        <time>2024-04-24T09:49:52Z</time>
      </trkpt>
      <trkpt lat="47.93257" lon="-0.46283">
        <ele>62</ele>
        <time>2024-04-24T09:50:21Z</time>
      </trkpt>
      <trkpt lat="47.93328" lon="-0.46417">
        <ele>68</ele>
        <time>2024-04-24T09:50:41Z</time>
      </trkpt>
      <trkpt lat="47.93351" lon="-0.46443">
        <ele>68</ele>
        <time>2024-04-24T09:50:46Z</time>
      </trkpt>
      <trkpt lat="47.93368" lon="-0.46456">
        <ele>67</ele>
        <time>2024-04-24T09:50:49Z</time>
      </trkpt>
      <trkpt lat="47.93368" lon="-0.46462">
        <ele>68</ele>
        <time>2024-04-24T09:50:50Z</time>
      </trkpt>
      <trkpt lat="47.93368" lon="-0.46456">
        <ele>67</ele>
        <time>2024-04-24T09:50:51Z</time>
      </trkpt>
      <trkpt lat="47.93505" lon="-0.46559">
        <ele>66</ele>
        <time>2024-04-24T09:51:18Z</time>
      </trkpt>
      <trkpt lat="47.93585" lon="-0.46616">
        <ele>65</ele>
        <time>2024-04-24T09:51:34Z</time>
      </trkpt>
      <trkpt lat="47.93595" lon="-0.4662">
        <ele>64</ele>
        <time>2024-04-24T09:51:36Z</time>
      </trkpt>
      <trkpt lat="47.93606" lon="-0.4662">
        <ele>64</ele>
        <time>2024-04-24T09:51:38Z</time>
      </trkpt>
      <trkpt lat="47.93618" lon="-0.46614">
        <ele>63</ele>
        <time>2024-04-24T09:51:40Z</time>
      </trkpt>
      <trkpt lat="47.93682" lon="-0.46782">
        <ele>66</ele>
        <time>2024-04-24T09:52:03Z</time>
      </trkpt>
      <trkpt lat="47.93749" lon="-0.46903">
        <ele>68</ele>
        <time>2024-04-24T09:52:22Z</time>
      </trkpt>
      <trkpt lat="47.93804" lon="-0.4699">
        <ele>64</ele>
        <time>2024-04-24T09:52:36Z</time>
      </trkpt>
      <trkpt lat="47.939" lon="-0.47153">
        <ele>61</ele>
        <time>2024-04-24T09:53:02Z</time>
      </trkpt>
      <trkpt lat="47.9391" lon="-0.47167">
        <ele>61</ele>
        <time>2024-04-24T09:53:04Z</time>
      </trkpt>
      <trkpt lat="47.93972" lon="-0.47242">
        <ele>62</ele>
        <time>2024-04-24T09:53:19Z</time>
      </trkpt>
      <trkpt lat="47.94014" lon="-0.47287">
        <ele>61</ele>
        <time>2024-04-24T09:53:28Z</time>
      </trkpt>
      <trkpt lat="47.94141" lon="-0.47375">
        <ele>60</ele>
        <time>2024-04-24T09:53:53Z</time>
      </trkpt>
      <trkpt lat="47.94298" lon="-0.47479">
        <ele>54</ele>
        <time>2024-04-24T09:54:23Z</time>
      </trkpt>
      <trkpt lat="47.94309" lon="-0.47486">
        <ele>53</ele>
        <time>2024-04-24T09:54:25Z</time>
      </trkpt>
      <trkpt lat="47.94353" lon="-0.47515">
        <ele>53</ele>
        <time>2024-04-24T09:54:34Z</time>
      </trkpt>
      <trkpt lat="47.94369" lon="-0.47529">
        <ele>54</ele>
        <time>2024-04-24T09:54:37Z</time>
      </trkpt>
      <trkpt lat="47.94381" lon="-0.47546">
        <ele>55</ele>
        <time>2024-04-24T09:54:40Z</time>
      </trkpt>
      <trkpt lat="47.94393" lon="-0.47571">
        <ele>56</ele>
        <time>2024-04-24T09:54:44Z</time>
      </trkpt>
      <trkpt lat="47.94421" lon="-0.47644">
        <ele>58</ele>
        <time>2024-04-24T09:54:54Z</time>
      </trkpt>
      <trkpt lat="47.94429" lon="-0.4766">
        <ele>59</ele>
        <time>2024-04-24T09:54:56Z</time>
      </trkpt>
      <trkpt lat="47.94446" lon="-0.47686">
        <ele>60</ele>
        <time>2024-04-24T09:55:01Z</time>
      </trkpt>
      <trkpt lat="47.9448" lon="-0.47723">
        <ele>62</ele>
        <time>2024-04-24T09:55:08Z</time>
      </trkpt>
      <trkpt lat="47.94488" lon="-0.47742">
        <ele>62</ele>
        <time>2024-04-24T09:55:11Z</time>
      </trkpt>
      <trkpt lat="47.94496" lon="-0.47765">
        <ele>61</ele>
        <time>2024-04-24T09:55:14Z</time>
      </trkpt>
      <trkpt lat="47.94502" lon="-0.4779">
        <ele>60</ele>
        <time>2024-04-24T09:55:17Z</time>
      </trkpt>
      <trkpt lat="47.94502" lon="-0.47802">
        <ele>60</ele>
        <time>2024-04-24T09:55:18Z</time>
      </trkpt>
      <trkpt lat="47.94515" lon="-0.47793">
        <ele>60</ele>
        <time>2024-04-24T09:55:21Z</time>
      </trkpt>
      <trkpt lat="47.94524" lon="-0.47787">
        <ele>60</ele>
        <time>2024-04-24T09:55:23Z</time>
      </trkpt>
      <trkpt lat="47.94564" lon="-0.47777">
        <ele>61</ele>
        <time>2024-04-24T09:55:30Z</time>
      </trkpt>
      <trkpt lat="47.94573" lon="-0.47768">
        <ele>62</ele>
        <time>2024-04-24T09:55:32Z</time>
      </trkpt>
      <trkpt lat="47.94602" lon="-0.47769">
        <ele>63</ele>
        <time>2024-04-24T09:55:37Z</time>
      </trkpt>
      <trkpt lat="47.94717" lon="-0.47766">
        <ele>62</ele>
        <time>2024-04-24T09:55:57Z</time>
      </trkpt>
      <trkpt lat="47.94762" lon="-0.47771">
        <ele>60</ele>
        <time>2024-04-24T09:56:05Z</time>
      </trkpt>
      <trkpt lat="47.94795" lon="-0.47785">
        <ele>60</ele>
        <time>2024-04-24T09:56:12Z</time>
      </trkpt>
      <trkpt lat="47.94807" lon="-0.47795">
        <ele>60</ele>
        <time>2024-04-24T09:56:14Z</time>
      </trkpt>
      <trkpt lat="47.94822" lon="-0.47811">
        <ele>59</ele>
        <time>2024-04-24T09:56:17Z</time>
      </trkpt>
      <trkpt lat="47.94891" lon="-0.47901">
        <ele>60</ele>
        <time>2024-04-24T09:56:34Z</time>
      </trkpt>
      <trkpt lat="47.94931" lon="-0.47981">
        <ele>60</ele>
        <time>2024-04-24T09:56:46Z</time>
      </trkpt>
      <trkpt lat="47.94942" lon="-0.48006">
        <ele>60</ele>
        <time>2024-04-24T09:56:49Z</time>
      </trkpt>
      <trkpt lat="47.94949" lon="-0.4803">
        <ele>59</ele>
        <time>2024-04-24T09:56:52Z</time>
      </trkpt>
      <trkpt lat="47.94954" lon="-0.48052">
        <ele>59</ele>
        <time>2024-04-24T09:56:55Z</time>
      </trkpt>
      <trkpt lat="47.9496" lon="-0.48085">
        <ele>58</ele>
        <time>2024-04-24T09:56:59Z</time>
      </trkpt>
      <trkpt lat="47.94974" lon="-0.48147">
        <ele>58</ele>
        <time>2024-04-24T09:57:07Z</time>
      </trkpt>
      <trkpt lat="47.95042" lon="-0.48371">
        <ele>57</ele>
        <time>2024-04-24T09:57:36Z</time>
      </trkpt>
      <trkpt lat="47.95049" lon="-0.48391">
        <ele>57</ele>
        <time>2024-04-24T09:57:39Z</time>
      </trkpt>
      <trkpt lat="47.9506" lon="-0.48411">
        <ele>58</ele>
        <time>2024-04-24T09:57:42Z</time>
      </trkpt>
      <trkpt lat="47.95105" lon="-0.48476">
        <ele>61</ele>
        <time>2024-04-24T09:57:53Z</time>
      </trkpt>
      <trkpt lat="47.95144" lon="-0.48566">
        <ele>64</ele>
        <time>2024-04-24T09:58:06Z</time>
      </trkpt>
      <trkpt lat="47.95214" lon="-0.48684">
        <ele>63</ele>
        <time>2024-04-24T09:58:25Z</time>
      </trkpt>
      <trkpt lat="47.95228" lon="-0.48702">
        <ele>63</ele>
        <time>2024-04-24T09:58:28Z</time>
      </trkpt>
      <trkpt lat="47.95247" lon="-0.48719">
        <ele>62</ele>
        <time>2024-04-24T09:58:32Z</time>
      </trkpt>
      <trkpt lat="47.9541" lon="-0.48839">
        <ele>61</ele>
        <time>2024-04-24T09:59:04Z</time>
      </trkpt>
      <trkpt lat="47.95539" lon="-0.48937">
        <ele>61</ele>
        <time>2024-04-24T09:59:30Z</time>
      </trkpt>
      <trkpt lat="47.95571" lon="-0.48965">
        <ele>61</ele>
        <time>2024-04-24T09:59:37Z</time>
      </trkpt>
      <trkpt lat="47.95642" lon="-0.49068">
        <ele>61</ele>
        <time>2024-04-24T09:59:54Z</time>
      </trkpt>
      <trkpt lat="47.95667" lon="-0.49098">
        <ele>61</ele>
        <time>2024-04-24T10:00:00Z</time>
      </trkpt>
      <trkpt lat="47.95757" lon="-0.49173">
        <ele>64</ele>
        <time>2024-04-24T10:00:18Z</time>
      </trkpt>
      <trkpt lat="47.95782" lon="-0.49198">
        <ele>63</ele>
        <time>2024-04-24T10:00:24Z</time>
      </trkpt>
      <trkpt lat="47.95806" lon="-0.49239">
        <ele>63</ele>
        <time>2024-04-24T10:00:30Z</time>
      </trkpt>
      <trkpt lat="47.95815" lon="-0.49246">
        <ele>63</ele>
        <time>2024-04-24T10:00:32Z</time>
      </trkpt>
      <trkpt lat="47.95825" lon="-0.49249">
        <ele>63</ele>
        <time>2024-04-24T10:00:34Z</time>
      </trkpt>
      <trkpt lat="47.95825" lon="-0.49242">
        <ele>63</ele>
        <time>2024-04-24T10:00:35Z</time>
      </trkpt>
      <trkpt lat="47.95812" lon="-0.4934">
        <ele>61</ele>
        <time>2024-04-24T10:00:46Z</time>
      </trkpt>
      <trkpt lat="47.95829" lon="-0.49354">
        <ele>62</ele>
        <time>2024-04-24T10:00:50Z</time>
      </trkpt>
      <trkpt lat="47.95835" lon="-0.49363">
        <ele>62</ele>
        <time>2024-04-24T10:00:51Z</time>
      </trkpt>
      <trkpt lat="47.9584" lon="-0.49387">
        <ele>61</ele>
        <time>2024-04-24T10:00:54Z</time>
      </trkpt>
      <trkpt lat="47.9583" lon="-0.49396">
        <ele>61</ele>
        <time>2024-04-24T10:00:56Z</time>
      </trkpt>
      <trkpt lat="47.95816" lon="-0.49431">
        <ele>60</ele>
        <time>2024-04-24T10:01:01Z</time>
      </trkpt>
      <trkpt lat="47.95809" lon="-0.49457">
        <ele>60</ele>
        <time>2024-04-24T10:01:05Z</time>
      </trkpt>
      <trkpt lat="47.95803" lon="-0.49466">
        <ele>60</ele>
        <time>2024-04-24T10:01:06Z</time>
      </trkpt>
      <trkpt lat="47.95795" lon="-0.49469">
        <ele>59</ele>
        <time>2024-04-24T10:01:08Z</time>
      </trkpt>
      <trkpt lat="47.9579" lon="-0.49506">
        <ele>59</ele>
        <time>2024-04-24T10:01:12Z</time>
      </trkpt>
      <trkpt lat="47.95784" lon="-0.49545">
        <ele>58</ele>
        <time>2024-04-24T10:01:17Z</time>
      </trkpt>
      <trkpt lat="47.95774" lon="-0.49586">
        <ele>57</ele>
        <time>2024-04-24T10:01:22Z</time>
      </trkpt>
      <trkpt lat="47.95764" lon="-0.49613">
        <ele>57</ele>
        <time>2024-04-24T10:01:26Z</time>
      </trkpt>
      <trkpt lat="47.95764" lon="-0.49611">
        <ele>57</ele>
        <time>2024-04-24T10:01:26Z</time>
      </trkpt>
      <trkpt lat="47.95785" lon="-0.49635">
        <ele>57</ele>
        <time>2024-04-24T10:01:31Z</time>
      </trkpt>
      <trkpt lat="47.95795" lon="-0.49648">
        <ele>57</ele>
        <time>2024-04-24T10:01:33Z</time>
      </trkpt>
      <trkpt lat="47.95803" lon="-0.49664">
        <ele>56</ele>
        <time>2024-04-24T10:01:35Z</time>
      </trkpt>
      <trkpt lat="47.95903" lon="-0.4998">
        <ele>64</ele>
        <time>2024-04-24T10:02:17Z</time>
      </trkpt>
      <trkpt lat="47.95896" lon="-0.49998">
        <ele>65</ele>
        <time>2024-04-24T10:02:20Z</time>
      </trkpt>
      <trkpt lat="47.95896" lon="-0.50171">
        <ele>68</ele>
        <time>2024-04-24T10:02:40Z</time>
      </trkpt>
      <trkpt lat="47.95893" lon="-0.50283">
        <ele>70</ele>
        <time>2024-04-24T10:02:54Z</time>
      </trkpt>
      <trkpt lat="47.95885" lon="-0.50351">
        <ele>71</ele>
        <time>2024-04-24T10:03:02Z</time>
      </trkpt>
      <trkpt lat="47.95868" lon="-0.50448">
        <ele>72</ele>
        <time>2024-04-24T10:03:14Z</time>
      </trkpt>
      <trkpt lat="47.95841" lon="-0.50567">
        <ele>72</ele>
        <time>2024-04-24T10:03:29Z</time>
      </trkpt>
      <trkpt lat="47.958" lon="-0.5071">
        <ele>70</ele>
        <time>2024-04-24T10:03:47Z</time>
      </trkpt>
      <trkpt lat="47.95759" lon="-0.50886">
        <ele>70</ele>
        <time>2024-04-24T10:04:09Z</time>
      </trkpt>
      <trkpt lat="47.95714" lon="-0.50984">
        <ele>70</ele>
        <time>2024-04-24T10:04:24Z</time>
      </trkpt>
      <trkpt lat="47.95701" lon="-0.51019">
        <ele>70</ele>
        <time>2024-04-24T10:04:28Z</time>
      </trkpt>
      <trkpt lat="47.956" lon="-0.51209">
        <ele>73</ele>
        <time>2024-04-24T10:04:57Z</time>
      </trkpt>
      <trkpt lat="47.95617" lon="-0.51347">
        <ele>71</ele>
        <time>2024-04-24T10:05:14Z</time>
      </trkpt>
      <trkpt lat="47.95622" lon="-0.51517">
        <ele>65</ele>
        <time>2024-04-24T10:05:34Z</time>
      </trkpt>
      <trkpt lat="47.9562" lon="-0.51594">
        <ele>64</ele>
        <time>2024-04-24T10:05:43Z</time>
      </trkpt>
      <trkpt lat="47.95613" lon="-0.51651">
        <ele>64</ele>
        <time>2024-04-24T10:05:50Z</time>
      </trkpt>
      <trkpt lat="47.95585" lon="-0.51807">
        <ele>66</ele>
        <time>2024-04-24T10:06:10Z</time>
      </trkpt>
      <trkpt lat="47.95606" lon="-0.51946">
        <ele>69</ele>
        <time>2024-04-24T10:06:27Z</time>
      </trkpt>
      <trkpt lat="47.95608" lon="-0.51983">
        <ele>70</ele>
        <time>2024-04-24T10:06:31Z</time>
      </trkpt>
      <trkpt lat="47.95598" lon="-0.52049">
        <ele>72</ele>
        <time>2024-04-24T10:06:39Z</time>
      </trkpt>
      <trkpt lat="47.9556" lon="-0.52172">
        <ele>75</ele>
        <time>2024-04-24T10:06:55Z</time>
      </trkpt>
      <trkpt lat="47.95537" lon="-0.52275">
        <ele>78</ele>
        <time>2024-04-24T10:07:08Z</time>
      </trkpt>
      <trkpt lat="47.95475" lon="-0.52497">
        <ele>75</ele>
        <time>2024-04-24T10:07:37Z</time>
      </trkpt>
      <trkpt lat="47.95454" lon="-0.52578">
        <ele>77</ele>
        <time>2024-04-24T10:07:47Z</time>
      </trkpt>
      <trkpt lat="47.9544" lon="-0.52676">
        <ele>78</ele>
        <time>2024-04-24T10:07:59Z</time>
      </trkpt>
      <trkpt lat="47.95432" lon="-0.52754">
        <ele>78</ele>
        <time>2024-04-24T10:08:08Z</time>
      </trkpt>
      <trkpt lat="47.95415" lon="-0.5285">
        <ele>79</ele>
        <time>2024-04-24T10:08:20Z</time>
      </trkpt>
      <trkpt lat="47.95407" lon="-0.5301">
        <ele>80</ele>
        <time>2024-04-24T10:08:39Z</time>
      </trkpt>
      <trkpt lat="47.95396" lon="-0.53097">
        <ele>78</ele>
        <time>2024-04-24T10:08:50Z</time>
      </trkpt>
      <trkpt lat="47.95385" lon="-0.53145">
        <ele>77</ele>
        <time>2024-04-24T10:08:56Z</time>
      </trkpt>
      <trkpt lat="47.95371" lon="-0.53209">
        <ele>76</ele>
        <time>2024-04-24T10:09:04Z</time>
      </trkpt>
      <trkpt lat="47.95358" lon="-0.53296">
        <ele>76</ele>
        <time>2024-04-24T10:09:15Z</time>
      </trkpt>
      <trkpt lat="47.95343" lon="-0.53374">
        <ele>76</ele>
        <time>2024-04-24T10:09:24Z</time>
      </trkpt>
      <trkpt lat="47.95321" lon="-0.53476">
        <ele>75</ele>
        <time>2024-04-24T10:09:37Z</time>
      </trkpt>
      <trkpt lat="47.95298" lon="-0.53558">
        <ele>74</ele>
        <time>2024-04-24T10:09:48Z</time>
      </trkpt>
      <trkpt lat="47.95285" lon="-0.53595">
        <ele>73</ele>
        <time>2024-04-24T10:09:53Z</time>
      </trkpt>
      <trkpt lat="47.95279" lon="-0.53626">
        <ele>74</ele>
        <time>2024-04-24T10:09:57Z</time>
      </trkpt>
      <trkpt lat="47.95275" lon="-0.53722">
        <ele>73</ele>
        <time>2024-04-24T10:10:08Z</time>
      </trkpt>
      <trkpt lat="47.9527" lon="-0.53761">
        <ele>73</ele>
        <time>2024-04-24T10:10:13Z</time>
      </trkpt>
      <trkpt lat="47.95239" lon="-0.53879">
        <ele>74</ele>
        <time>2024-04-24T10:10:28Z</time>
      </trkpt>
      <trkpt lat="47.95143" lon="-0.54186">
        <ele>78</ele>
        <time>2024-04-24T10:11:08Z</time>
      </trkpt>
      <trkpt lat="47.95149" lon="-0.54195">
        <ele>78</ele>
        <time>2024-04-24T10:11:10Z</time>
      </trkpt>
      <trkpt lat="47.95149" lon="-0.54203">
        <ele>78</ele>
        <time>2024-04-24T10:11:11Z</time>
      </trkpt>
      <trkpt lat="47.95145" lon="-0.54211">
        <ele>78</ele>
        <time>2024-04-24T10:11:12Z</time>
      </trkpt>
      <trkpt lat="47.95143" lon="-0.54213">
        <ele>78</ele>
        <time>2024-04-24T10:11:12Z</time>
      </trkpt>
      <trkpt lat="47.95137" lon="-0.54213">
        <ele>78</ele>
        <time>2024-04-24T10:11:13Z</time>
      </trkpt>
      <trkpt lat="47.95126" lon="-0.54301">
        <ele>79</ele>
        <time>2024-04-24T10:11:24Z</time>
      </trkpt>
      <trkpt lat="47.9512" lon="-0.54325">
        <ele>80</ele>
        <time>2024-04-24T10:11:27Z</time>
      </trkpt>
      <trkpt lat="47.95122" lon="-0.54342">
        <ele>80</ele>
        <time>2024-04-24T10:11:29Z</time>
      </trkpt>
      <trkpt lat="47.95119" lon="-0.54364">
        <ele>80</ele>
        <time>2024-04-24T10:11:32Z</time>
      </trkpt>
      <trkpt lat="47.95091" lon="-0.54433">
        <ele>80</ele>
        <time>2024-04-24T10:11:41Z</time>
      </trkpt>
      <trkpt lat="47.95053" lon="-0.54534">
        <ele>81</ele>
        <time>2024-04-24T10:11:55Z</time>
      </trkpt>
      <trkpt lat="47.95016" lon="-0.54681">
        <ele>83</ele>
        <time>2024-04-24T10:12:14Z</time>
      </trkpt>
      <trkpt lat="47.95011" lon="-0.54694">
        <ele>84</ele>
        <time>2024-04-24T10:12:16Z</time>
      </trkpt>
      <trkpt lat="47.95005" lon="-0.54701">
        <ele>84</ele>
        <time>2024-04-24T10:12:17Z</time>
      </trkpt>
      <trkpt lat="47.94933" lon="-0.54736">
        <ele>85</ele>
        <time>2024-04-24T10:12:31Z</time>
      </trkpt>
      <trkpt lat="47.94959" lon="-0.54892">
        <ele>87</ele>
        <time>2024-04-24T10:12:50Z</time>
      </trkpt>
      <trkpt lat="47.94985" lon="-0.55018">
        <ele>88</ele>
        <time>2024-04-24T10:13:05Z</time>
      </trkpt>
      <trkpt lat="47.95017" lon="-0.55178">
        <ele>88</ele>
        <time>2024-04-24T10:13:25Z</time>
      </trkpt>
      <trkpt lat="47.9506" lon="-0.55156">
        <ele>87</ele>
        <time>2024-04-24T10:13:33Z</time>
      </trkpt>
      <trkpt lat="47.95088" lon="-0.55174">
        <ele>87</ele>
        <time>2024-04-24T10:13:39Z</time>
      </trkpt>
      <trkpt lat="47.95088" lon="-0.55188">
        <ele>87</ele>
        <time>2024-04-24T10:13:41Z</time>
      </trkpt>
      <trkpt lat="47.95105" lon="-0.55271">
        <ele>86</ele>
        <time>2024-04-24T10:13:51Z</time>
      </trkpt>
      <trkpt lat="47.95107" lon="-0.55278">
        <ele>86</ele>
        <time>2024-04-24T10:13:52Z</time>
      </trkpt>
      <trkpt lat="47.9511" lon="-0.55279">
        <ele>86</ele>
        <time>2024-04-24T10:13:52Z</time>
      </trkpt>
      <trkpt lat="47.95126" lon="-0.55274">
        <ele>86</ele>
        <time>2024-04-24T10:13:55Z</time>
      </trkpt>
      <trkpt lat="47.95144" lon="-0.5537">
        <ele>87</ele>
        <time>2024-04-24T10:14:07Z</time>
      </trkpt>
      <trkpt lat="47.95193" lon="-0.55367">
        <ele>85</ele>
        <time>2024-04-24T10:14:16Z</time>
      </trkpt>
      <trkpt lat="47.952" lon="-0.55371">
        <ele>85</ele>
        <time>2024-04-24T10:14:17Z</time>
      </trkpt>
      <trkpt lat="47.95205" lon="-0.55364">
        <ele>85</ele>
        <time>2024-04-24T10:14:18Z</time>
      </trkpt>
      <trkpt lat="47.95284" lon="-0.55331">
        <ele>82</ele>
        <time>2024-04-24T10:14:33Z</time>
      </trkpt>
      <trkpt lat="47.95289" lon="-0.55327">
        <ele>82</ele>
        <time>2024-04-24T09:21:13Z</time>
      </trkpt>
      <trkpt lat="47.95311" lon="-0.55309">
        <ele>82</ele>
        <time>2024-04-24T09:21:17Z</time>
      </trkpt>
      <trkpt lat="47.95318" lon="-0.55307">
        <ele>82</ele>
        <time>2024-04-24T09:21:19Z</time>
      </trkpt>
      <trkpt lat="47.95326" lon="-0.55308">
        <ele>82</ele>
        <time>2024-04-24T09:21:20Z</time>
      </trkpt>
      <trkpt lat="47.95332" lon="-0.55315">
        <ele>82</ele>
        <time>2024-04-24T09:21:22Z</time>
      </trkpt>
      <trkpt lat="47.95344" lon="-0.55348">
        <ele>82</ele>
        <time>2024-04-24T09:21:26Z</time>
      </trkpt>
      <trkpt lat="47.95349" lon="-0.55367">
        <ele>82</ele>
        <time>2024-04-24T09:21:28Z</time>
      </trkpt>
      <trkpt lat="47.95358" lon="-0.55385">
        <ele>83</ele>
        <time>2024-04-24T09:21:31Z</time>
      </trkpt>
      <trkpt lat="47.95381" lon="-0.55422">
        <ele>84</ele>
        <time>2024-04-24T09:21:37Z</time>
      </trkpt>
      <trkpt lat="47.95406" lon="-0.55436">
        <ele>85</ele>
        <time>2024-04-24T09:21:42Z</time>
      </trkpt>
      <trkpt lat="47.95431" lon="-0.55446">
        <ele>85</ele>
        <time>2024-04-24T09:21:46Z</time>
      </trkpt>
      <trkpt lat="47.95469" lon="-0.55455">
        <ele>85</ele>
        <time>2024-04-24T09:21:53Z</time>
      </trkpt>
      <trkpt lat="47.95498" lon="-0.55458">
        <ele>85</ele>
        <time>2024-04-24T09:21:58Z</time>
      </trkpt>
      <trkpt lat="47.95507" lon="-0.55542">
        <ele>86</ele>
        <time>2024-04-24T09:22:09Z</time>
      </trkpt>
      <trkpt lat="47.95516" lon="-0.55561">
        <ele>86</ele>
        <time>2024-04-24T09:22:11Z</time>
      </trkpt>
      <trkpt lat="47.95514" lon="-0.55567">
        <ele>86</ele>
        <time>2024-04-24T09:22:12Z</time>
      </trkpt>
      <trkpt lat="47.95514" lon="-0.55582">
        <ele>86</ele>
        <time>2024-04-24T09:22:14Z</time>
      </trkpt>
      <trkpt lat="47.95439" lon="-0.55609">
        <ele>88</ele>
        <time>2024-04-24T09:22:28Z</time>
      </trkpt>
      <trkpt lat="47.95503" lon="-0.55889">
        <ele>94</ele>
        <time>2024-04-24T09:23:03Z</time>
      </trkpt>
      <trkpt lat="47.95506" lon="-0.5594">
        <ele>95</ele>
        <time>2024-04-24T09:23:09Z</time>
      </trkpt>
      <trkpt lat="47.95501" lon="-0.55946">
        <ele>95</ele>
        <time>2024-04-24T09:23:10Z</time>
      </trkpt>
      <trkpt lat="47.955" lon="-0.55955">
        <ele>95</ele>
        <time>2024-04-24T09:23:11Z</time>
      </trkpt>
      <trkpt lat="47.95503" lon="-0.55963">
        <ele>95</ele>
        <time>2024-04-24T09:23:12Z</time>
      </trkpt>
      <trkpt lat="47.95505" lon="-0.55963">
        <ele>95</ele>
        <time>2024-04-24T09:23:13Z</time>
      </trkpt>
      <trkpt lat="47.95503" lon="-0.55963">
        <ele>95</ele>
        <time>2024-04-24T09:23:13Z</time>
      </trkpt>
      <trkpt lat="47.955" lon="-0.55955">
        <ele>95</ele>
        <time>2024-04-24T09:23:14Z</time>
      </trkpt>
      <trkpt lat="47.95478" lon="-0.55962">
        <ele>95</ele>
        <time>2024-04-24T09:23:18Z</time>
      </trkpt>
      <trkpt lat="47.95424" lon="-0.56013">
        <ele>96</ele>
        <time>2024-04-24T09:23:30Z</time>
      </trkpt>
      <trkpt lat="47.95393" lon="-0.5603">
        <ele>96</ele>
        <time>2024-04-24T09:23:35Z</time>
      </trkpt>
      <trkpt lat="47.95392" lon="-0.56029">
        <ele>96</ele>
        <time>2024-04-24T09:23:36Z</time>
      </trkpt>
      <trkpt lat="47.95395" lon="-0.56041">
        <ele>96</ele>
        <time>2024-04-24T09:23:37Z</time>
      </trkpt>
      <trkpt lat="47.95391" lon="-0.56051">
        <ele>96</ele>
        <time>2024-04-24T09:23:39Z</time>
      </trkpt>
      <trkpt lat="47.95558" lon="-0.56343">
        <ele>98</ele>
        <time>2024-04-24T09:24:24Z</time>
      </trkpt>
      <trkpt lat="47.95563" lon="-0.56341">
        <ele>98</ele>
        <time>2024-04-24T09:24:25Z</time>
      </trkpt>
      <trkpt lat="47.95593" lon="-0.56328">
        <ele>98</ele>
        <time>2024-04-24T09:24:31Z</time>
      </trkpt>
      <trkpt lat="47.95613" lon="-0.5631">
        <ele>97</ele>
        <time>2024-04-24T09:24:35Z</time>
      </trkpt>
      <trkpt lat="47.95627" lon="-0.56308">
        <ele>97</ele>
        <time>2024-04-24T09:24:37Z</time>
      </trkpt>
      <trkpt lat="47.95654" lon="-0.56315">
        <ele>96</ele>
        <time>2024-04-24T09:24:42Z</time>
      </trkpt>
      <trkpt lat="47.95667" lon="-0.56333">
        <ele>95</ele>
        <time>2024-04-24T09:24:45Z</time>
      </trkpt>
      <trkpt lat="47.9572" lon="-0.56376">
        <ele>93</ele>
        <time>2024-04-24T09:24:56Z</time>
      </trkpt>
      <trkpt lat="47.95753" lon="-0.56392">
        <ele>92</ele>
        <time>2024-04-24T09:25:02Z</time>
      </trkpt>
      <trkpt lat="47.95817" lon="-0.56415">
        <ele>91</ele>
        <time>2024-04-24T09:25:14Z</time>
      </trkpt>
      <trkpt lat="47.95945" lon="-0.56516">
        <ele>87</ele>
        <time>2024-04-24T09:25:40Z</time>
      </trkpt>
      <trkpt lat="47.9604" lon="-0.56618">
        <ele>87</ele>
        <time>2024-04-24T09:26:01Z</time>
      </trkpt>
      <trkpt lat="47.96107" lon="-0.56698">
        <ele>86</ele>
        <time>2024-04-24T09:26:16Z</time>
      </trkpt>
      <trkpt lat="47.96214" lon="-0.56797">
        <ele>85</ele>
        <time>2024-04-24T09:26:38Z</time>
      </trkpt>
      <trkpt lat="47.96251" lon="-0.56843">
        <ele>85</ele>
        <time>2024-04-24T09:26:47Z</time>
      </trkpt>
      <trkpt lat="47.96324" lon="-0.56935">
        <ele>84</ele>
        <time>2024-04-24T09:27:04Z</time>
      </trkpt>
      <trkpt lat="47.96525" lon="-0.57203">
        <ele>85</ele>
        <time>2024-04-24T09:27:52Z</time>
      </trkpt>
      <trkpt lat="47.96672" lon="-0.5743">
        <ele>87</ele>
        <time>2024-04-24T09:28:29Z</time>
      </trkpt>
      <trkpt lat="47.96796" lon="-0.57572">
        <ele>89</ele>
        <time>2024-04-24T09:28:57Z</time>
      </trkpt>
      <trkpt lat="47.96824" lon="-0.57636">
        <ele>88</ele>
        <time>2024-04-24T09:29:06Z</time>
      </trkpt>
      <trkpt lat="47.96869" lon="-0.57742">
        <ele>87</ele>
        <time>2024-04-24T09:29:21Z</time>
      </trkpt>
      <trkpt lat="47.9689" lon="-0.57806">
        <ele>88</ele>
        <time>2024-04-24T09:29:30Z</time>
      </trkpt>
      <trkpt lat="47.96954" lon="-0.57929">
        <ele>88</ele>
        <time>2024-04-24T09:29:48Z</time>
      </trkpt>
      <trkpt lat="47.97029" lon="-0.58053">
        <ele>88</ele>
        <time>2024-04-24T09:30:08Z</time>
      </trkpt>
      <trkpt lat="47.97054" lon="-0.5812">
        <ele>88</ele>
        <time>2024-04-24T09:30:17Z</time>
      </trkpt>
      <trkpt lat="47.97076" lon="-0.58267">
        <ele>90</ele>
        <time>2024-04-24T09:30:35Z</time>
      </trkpt>
      <trkpt lat="47.97085" lon="-0.58263">
        <ele>90</ele>
        <time>2024-04-24T09:30:37Z</time>
      </trkpt>
      <trkpt lat="47.97116" lon="-0.58248">
        <ele>90</ele>
        <time>2024-04-24T09:30:43Z</time>
      </trkpt>
      <trkpt lat="47.97155" lon="-0.5824">
        <ele>89</ele>
        <time>2024-04-24T09:30:50Z</time>
      </trkpt>
      <trkpt lat="47.97181" lon="-0.58226">
        <ele>88</ele>
        <time>2024-04-24T09:30:55Z</time>
      </trkpt>
      <trkpt lat="47.97191" lon="-0.58215">
        <ele>88</ele>
        <time>2024-04-24T09:30:57Z</time>
      </trkpt>
      <trkpt lat="47.97217" lon="-0.58178">
        <ele>86</ele>
        <time>2024-04-24T09:31:03Z</time>
      </trkpt>
      <trkpt lat="47.97229" lon="-0.58164">
        <ele>86</ele>
        <time>2024-04-24T09:31:06Z</time>
      </trkpt>
      <trkpt lat="47.97262" lon="-0.58136">
        <ele>85</ele>
        <time>2024-04-24T09:31:13Z</time>
      </trkpt>
      <trkpt lat="47.97363" lon="-0.58077">
        <ele>84</ele>
        <time>2024-04-24T09:31:32Z</time>
      </trkpt>
      <trkpt lat="47.97406" lon="-0.58059">
        <ele>83</ele>
        <time>2024-04-24T09:31:40Z</time>
      </trkpt>
      <trkpt lat="47.97528" lon="-0.5802">
        <ele>79</ele>
        <time>2024-04-24T09:32:02Z</time>
      </trkpt>
      <trkpt lat="47.97595" lon="-0.58005">
        <ele>79</ele>
        <time>2024-04-24T09:32:14Z</time>
      </trkpt>
      <trkpt lat="47.97616" lon="-0.57995">
        <ele>78</ele>
        <time>2024-04-24T09:32:18Z</time>
      </trkpt>
      <trkpt lat="47.97706" lon="-0.57946">
        <ele>75</ele>
        <time>2024-04-24T09:32:35Z</time>
      </trkpt>
      <trkpt lat="47.97743" lon="-0.5792">
        <ele>75</ele>
        <time>2024-04-24T09:32:43Z</time>
      </trkpt>
      <trkpt lat="47.97758" lon="-0.57903">
        <ele>75</ele>
        <time>2024-04-24T09:32:46Z</time>
      </trkpt>
      <trkpt lat="47.97809" lon="-0.57833">
        <ele>75</ele>
        <time>2024-04-24T09:32:58Z</time>
      </trkpt>
      <trkpt lat="47.97845" lon="-0.57794">
        <ele>75</ele>
        <time>2024-04-24T09:33:06Z</time>
      </trkpt>
      <trkpt lat="47.97859" lon="-0.57773">
        <ele>75</ele>
        <time>2024-04-24T09:33:10Z</time>
      </trkpt>
      <trkpt lat="47.9788" lon="-0.57732">
        <ele>75</ele>
        <time>2024-04-24T09:33:16Z</time>
      </trkpt>
      <trkpt lat="47.97892" lon="-0.57698">
        <ele>75</ele>
        <time>2024-04-24T09:33:20Z</time>
      </trkpt>
      <trkpt lat="47.97897" lon="-0.57671">
        <ele>74</ele>
        <time>2024-04-24T09:33:24Z</time>
      </trkpt>
      <trkpt lat="47.97902" lon="-0.57569">
        <ele>75</ele>
        <time>2024-04-24T09:33:36Z</time>
      </trkpt>
      <trkpt lat="47.97908" lon="-0.57549">
        <ele>75</ele>
        <time>2024-04-24T09:33:39Z</time>
      </trkpt>
      <trkpt lat="47.9792" lon="-0.57526">
        <ele>74</ele>
        <time>2024-04-24T09:33:42Z</time>
      </trkpt>
      <trkpt lat="47.97937" lon="-0.5751">
        <ele>74</ele>
        <time>2024-04-24T09:33:46Z</time>
      </trkpt>
      <trkpt lat="47.97992" lon="-0.57481">
        <ele>73</ele>
        <time>2024-04-24T09:33:56Z</time>
      </trkpt>
      <trkpt lat="47.98001" lon="-0.57477">
        <ele>73</ele>
        <time>2024-04-24T09:33:58Z</time>
      </trkpt>
      <trkpt lat="47.98018" lon="-0.57475">
        <ele>73</ele>
        <time>2024-04-24T09:34:01Z</time>
      </trkpt>
      <trkpt lat="47.98039" lon="-0.57475">
        <ele>73</ele>
        <time>2024-04-24T09:34:04Z</time>
      </trkpt>
      <trkpt lat="47.98165" lon="-0.57489">
        <ele>74</ele>
        <time>2024-04-24T09:34:27Z</time>
      </trkpt>
      <trkpt lat="47.98181" lon="-0.57486">
        <ele>74</ele>
        <time>2024-04-24T09:34:30Z</time>
      </trkpt>
      <trkpt lat="47.98196" lon="-0.57479">
        <ele>74</ele>
        <time>2024-04-24T09:34:33Z</time>
      </trkpt>
      <trkpt lat="47.98215" lon="-0.57463">
        <ele>74</ele>
        <time>2024-04-24T09:34:36Z</time>
      </trkpt>
      <trkpt lat="47.98263" lon="-0.57397">
        <ele>75</ele>
        <time>2024-04-24T09:34:48Z</time>
      </trkpt>
      <trkpt lat="47.98338" lon="-0.5727">
        <ele>76</ele>
        <time>2024-04-24T09:35:08Z</time>
      </trkpt>
      <trkpt lat="47.98369" lon="-0.57231">
        <ele>77</ele>
        <time>2024-04-24T09:35:15Z</time>
      </trkpt>
      <trkpt lat="47.98401" lon="-0.57203">
        <ele>77</ele>
        <time>2024-04-24T09:35:22Z</time>
      </trkpt>
      <trkpt lat="47.98565" lon="-0.57064">
        <ele>77</ele>
        <time>2024-04-24T09:35:56Z</time>
      </trkpt>
      <trkpt lat="47.98586" lon="-0.57049">
        <ele>77</ele>
        <time>2024-04-24T09:36:00Z</time>
      </trkpt>
      <trkpt lat="47.98633" lon="-0.57031">
        <ele>77</ele>
        <time>2024-04-24T09:36:08Z</time>
      </trkpt>
      <trkpt lat="47.98687" lon="-0.56993">
        <ele>79</ele>
        <time>2024-04-24T09:36:19Z</time>
      </trkpt>
      <trkpt lat="47.98686" lon="-0.56987">
        <ele>79</ele>
        <time>2024-04-24T09:36:20Z</time>
      </trkpt>
      <trkpt lat="47.98689" lon="-0.56982">
        <ele>79</ele>
        <time>2024-04-24T09:36:20Z</time>
      </trkpt>
      <trkpt lat="47.98693" lon="-0.5698">
        <ele>79</ele>
        <time>2024-04-24T09:36:21Z</time>
      </trkpt>
      <trkpt lat="47.98695" lon="-0.56981">
        <ele>79</ele>
        <time>2024-04-24T09:36:22Z</time>
      </trkpt>
      <trkpt lat="47.98693" lon="-0.5698">
        <ele>79</ele>
        <time>2024-04-24T09:36:22Z</time>
      </trkpt>
      <trkpt lat="47.98693" lon="-0.56968">
        <ele>79</ele>
        <time>2024-04-24T09:36:23Z</time>
      </trkpt>
      <trkpt lat="47.98702" lon="-0.56928">
        <ele>79</ele>
        <time>2024-04-24T09:36:28Z</time>
      </trkpt>
      <trkpt lat="47.98701" lon="-0.56914">
        <ele>79</ele>
        <time>2024-04-24T09:36:30Z</time>
      </trkpt>
      <trkpt lat="47.98674" lon="-0.56849">
        <ele>80</ele>
        <time>2024-04-24T09:36:39Z</time>
      </trkpt>
      <trkpt lat="47.9867" lon="-0.56836">
        <ele>80</ele>
        <time>2024-04-24T09:36:41Z</time>
      </trkpt>
      <trkpt lat="47.9867" lon="-0.56815">
        <ele>80</ele>
        <time>2024-04-24T09:36:43Z</time>
      </trkpt>
      <trkpt lat="47.98671" lon="-0.5681">
        <ele>80</ele>
        <time>2024-04-24T09:36:44Z</time>
      </trkpt>
      <trkpt lat="47.98674" lon="-0.56797">
        <ele>80</ele>
        <time>2024-04-24T09:36:46Z</time>
      </trkpt>
      <trkpt lat="47.98695" lon="-0.56763">
        <ele>80</ele>
        <time>2024-04-24T09:36:51Z</time>
      </trkpt>
      <trkpt lat="47.98721" lon="-0.56707">
        <ele>81</ele>
        <time>2024-04-24T09:36:59Z</time>
      </trkpt>
      <trkpt lat="47.98727" lon="-0.56688">
        <ele>81</ele>
        <time>2024-04-24T09:37:02Z</time>
      </trkpt>
      <trkpt lat="47.98729" lon="-0.5667">
        <ele>82</ele>
        <time>2024-04-24T09:37:04Z</time>
      </trkpt>
      <trkpt lat="47.98731" lon="-0.56633">
        <ele>82</ele>
        <time>2024-04-24T09:37:08Z</time>
      </trkpt>
      <trkpt lat="47.98736" lon="-0.56618">
        <ele>83</ele>
        <time>2024-04-24T09:37:10Z</time>
      </trkpt>
      <trkpt lat="47.98748" lon="-0.56597">
        <ele>84</ele>
        <time>2024-04-24T09:37:14Z</time>
      </trkpt>
      <trkpt lat="47.9905" lon="-0.56322">
        <ele>86</ele>
        <time>2024-04-24T09:38:17Z</time>
      </trkpt>
      <trkpt lat="47.99063" lon="-0.56316">
        <ele>86</ele>
        <time>2024-04-24T09:38:19Z</time>
      </trkpt>
      <trkpt lat="47.99076" lon="-0.56313">
        <ele>86</ele>
        <time>2024-04-24T09:38:21Z</time>
      </trkpt>
      <trkpt lat="47.99088" lon="-0.56314">
        <ele>86</ele>
        <time>2024-04-24T09:38:24Z</time>
      </trkpt>
      <trkpt lat="47.99093" lon="-0.56297">
        <ele>87</ele>
        <time>2024-04-24T09:38:26Z</time>
      </trkpt>
      <trkpt lat="47.99105" lon="-0.5627">
        <ele>87</ele>
        <time>2024-04-24T09:38:30Z</time>
      </trkpt>
      <trkpt lat="47.99153" lon="-0.56203">
        <ele>86</ele>
        <time>2024-04-24T09:38:41Z</time>
      </trkpt>
      <trkpt lat="47.99226" lon="-0.56093">
        <ele>84</ele>
        <time>2024-04-24T09:39:00Z</time>
      </trkpt>
      <trkpt lat="47.99284" lon="-0.56023">
        <ele>84</ele>
        <time>2024-04-24T09:39:13Z</time>
      </trkpt>
      <trkpt lat="47.99325" lon="-0.55984">
        <ele>83</ele>
        <time>2024-04-24T09:39:22Z</time>
      </trkpt>
      <trkpt lat="47.99395" lon="-0.5594">
        <ele>85</ele>
        <time>2024-04-24T09:39:35Z</time>
      </trkpt>
      <trkpt lat="47.99439" lon="-0.55923">
        <ele>85</ele>
        <time>2024-04-24T09:39:43Z</time>
      </trkpt>
      <trkpt lat="47.9948" lon="-0.55901">
        <ele>84</ele>
        <time>2024-04-24T09:39:51Z</time>
      </trkpt>
      <trkpt lat="47.99524" lon="-0.55851">
        <ele>84</ele>
        <time>2024-04-24T09:40:01Z</time>
      </trkpt>
      <trkpt lat="47.99556" lon="-0.55819">
        <ele>84</ele>
        <time>2024-04-24T09:40:08Z</time>
      </trkpt>
      <trkpt lat="47.99648" lon="-0.55745">
        <ele>86</ele>
        <time>2024-04-24T09:40:26Z</time>
      </trkpt>
      <trkpt lat="47.99677" lon="-0.55716">
        <ele>87</ele>
        <time>2024-04-24T09:40:32Z</time>
      </trkpt>
      <trkpt lat="47.99696" lon="-0.55695">
        <ele>88</ele>
        <time>2024-04-24T09:40:37Z</time>
      </trkpt>
      <trkpt lat="47.99729" lon="-0.5564">
        <ele>88</ele>
        <time>2024-04-24T09:40:45Z</time>
      </trkpt>
      <trkpt lat="47.9978" lon="-0.55587">
        <ele>87</ele>
        <time>2024-04-24T09:40:57Z</time>
      </trkpt>
      <trkpt lat="47.99787" lon="-0.55574">
        <ele>87</ele>
        <time>2024-04-24T09:40:59Z</time>
      </trkpt>
      <trkpt lat="47.99787" lon="-0.55569">
        <ele>87</ele>
        <time>2024-04-24T09:40:59Z</time>
      </trkpt>
      <trkpt lat="47.99788" lon="-0.55558">
        <ele>87</ele>
        <time>2024-04-24T09:41:00Z</time>
      </trkpt>
      <trkpt lat="47.99785" lon="-0.5555">
        <ele>87</ele>
        <time>2024-04-24T09:41:02Z</time>
      </trkpt>
      <trkpt lat="47.99712" lon="-0.5542">
        <ele>87</ele>
        <time>2024-04-24T09:41:22Z</time>
      </trkpt>
      <trkpt lat="47.99605" lon="-0.55233">
        <ele>87</ele>
        <time>2024-04-24T09:41:51Z</time>
      </trkpt>
      <trkpt lat="47.99595" lon="-0.55219">
        <ele>87</ele>
        <time>2024-04-24T09:41:53Z</time>
      </trkpt>
      <trkpt lat="47.99574" lon="-0.55197">
        <ele>87</ele>
        <time>2024-04-24T09:41:58Z</time>
      </trkpt>
      <trkpt lat="47.99571" lon="-0.55189">
        <ele>87</ele>
        <time>2024-04-24T09:41:59Z</time>
      </trkpt>
      <trkpt lat="47.99573" lon="-0.55151">
        <ele>87</ele>
        <time>2024-04-24T09:42:04Z</time>
      </trkpt>
      <trkpt lat="47.99572" lon="-0.55132">
        <ele>87</ele>
        <time>2024-04-24T09:42:06Z</time>
      </trkpt>
      <trkpt lat="47.99508" lon="-0.5496">
        <ele>85</ele>
        <time>2024-04-24T09:42:29Z</time>
      </trkpt>
      <trkpt lat="47.99466" lon="-0.54837">
        <ele>86</ele>
        <time>2024-04-24T09:42:46Z</time>
      </trkpt>
      <trkpt lat="47.99466" lon="-0.54825">
        <ele>86</ele>
        <time>2024-04-24T09:42:47Z</time>
      </trkpt>
      <trkpt lat="47.99466" lon="-0.54821">
        <ele>86</ele>
        <time>2024-04-24T09:42:48Z</time>
      </trkpt>
      <trkpt lat="47.99493" lon="-0.54813">
        <ele>87</ele>
        <time>2024-04-24T09:42:53Z</time>
      </trkpt>
      <trkpt lat="47.99524" lon="-0.54797">
        <ele>88</ele>
        <time>2024-04-24T09:42:58Z</time>
      </trkpt>
      <trkpt lat="47.99558" lon="-0.54784">
        <ele>89</ele>
        <time>2024-04-24T09:43:05Z</time>
      </trkpt>
      <trkpt lat="47.99568" lon="-0.54783">
        <ele>90</ele>
        <time>2024-04-24T09:43:06Z</time>
      </trkpt>
      <trkpt lat="47.99581" lon="-0.54786">
        <ele>90</ele>
        <time>2024-04-24T09:43:09Z</time>
      </trkpt>
      <trkpt lat="47.99631" lon="-0.54792">
        <ele>90</ele>
        <time>2024-04-24T09:43:18Z</time>
      </trkpt>
      <trkpt lat="47.9964" lon="-0.54789">
        <ele>90</ele>
        <time>2024-04-24T09:43:19Z</time>
      </trkpt>
      <trkpt lat="47.99649" lon="-0.5478">
        <ele>89</ele>
        <time>2024-04-24T09:43:21Z</time>
      </trkpt>
      <trkpt lat="47.99657" lon="-0.54765">
        <ele>89</ele>
        <time>2024-04-24T09:43:24Z</time>
      </trkpt>
      <trkpt lat="47.99664" lon="-0.54743">
        <ele>89</ele>
        <time>2024-04-24T09:43:26Z</time>
      </trkpt>
      <trkpt lat="47.99667" lon="-0.54738">
        <ele>89</ele>
        <time>2024-04-24T09:43:27Z</time>
      </trkpt>
      <trkpt lat="47.99698" lon="-0.54719">
        <ele>88</ele>
        <time>2024-04-24T09:43:33Z</time>
      </trkpt>
      <trkpt lat="47.99695" lon="-0.54705">
        <ele>88</ele>
        <time>2024-04-24T09:43:35Z</time>
      </trkpt>
      <trkpt lat="47.99683" lon="-0.54649">
        <ele>87</ele>
        <time>2024-04-24T09:43:42Z</time>
      </trkpt>
      <trkpt lat="47.9965" lon="-0.54595">
        <ele>87</ele>
        <time>2024-04-24T09:43:51Z</time>
      </trkpt>
      <trkpt lat="47.99638" lon="-0.54572">
        <ele>86</ele>
        <time>2024-04-24T09:43:54Z</time>
      </trkpt>
      <trkpt lat="47.99628" lon="-0.54546">
        <ele>86</ele>
        <time>2024-04-24T09:43:58Z</time>
      </trkpt>
      <trkpt lat="47.99595" lon="-0.54418">
        <ele>83</ele>
        <time>2024-04-24T09:44:14Z</time>
      </trkpt>
      <trkpt lat="47.99566" lon="-0.54337">
        <ele>84</ele>
        <time>2024-04-24T09:44:25Z</time>
      </trkpt>
      <trkpt lat="47.99469" lon="-0.5408">
        <ele>88</ele>
        <time>2024-04-24T09:45:00Z</time>
      </trkpt>
      <trkpt lat="47.99426" lon="-0.53954">
        <ele>89</ele>
        <time>2024-04-24T09:45:17Z</time>
      </trkpt>
      <trkpt lat="47.99372" lon="-0.5382">
        <ele>90</ele>
        <time>2024-04-24T09:45:36Z</time>
      </trkpt>
      <trkpt lat="47.99344" lon="-0.53767">
        <ele>90</ele>
        <time>2024-04-24T09:45:44Z</time>
      </trkpt>
      <trkpt lat="47.99294" lon="-0.53635">
        <ele>90</ele>
        <time>2024-04-24T09:46:02Z</time>
      </trkpt>
      <trkpt lat="47.99269" lon="-0.53586">
        <ele>90</ele>
        <time>2024-04-24T09:46:09Z</time>
      </trkpt>
      <trkpt lat="47.99255" lon="-0.53552">
        <ele>90</ele>
        <time>2024-04-24T09:46:14Z</time>
      </trkpt>
      <trkpt lat="47.99198" lon="-0.5337">
        <ele>91</ele>
        <time>2024-04-24T09:46:38Z</time>
      </trkpt>
      <trkpt lat="47.99192" lon="-0.53354">
        <ele>91</ele>
        <time>2024-04-24T09:46:40Z</time>
      </trkpt>
      <trkpt lat="47.99162" lon="-0.53299">
        <ele>92</ele>
        <time>2024-04-24T09:46:48Z</time>
      </trkpt>
      <trkpt lat="47.99153" lon="-0.53266">
        <ele>92</ele>
        <time>2024-04-24T09:46:53Z</time>
      </trkpt>
      <trkpt lat="47.99109" lon="-0.5304">
        <ele>91</ele>
        <time>2024-04-24T09:47:21Z</time>
      </trkpt>
      <trkpt lat="47.99091" lon="-0.52981">
        <ele>90</ele>
        <time>2024-04-24T09:47:28Z</time>
      </trkpt>
      <trkpt lat="47.99091" lon="-0.52975">
        <ele>90</ele>
        <time>2024-04-24T09:47:29Z</time>
      </trkpt>
      <trkpt lat="47.99091" lon="-0.52981">
        <ele>90</ele>
        <time>2024-04-24T09:47:30Z</time>
      </trkpt>
      <trkpt lat="47.97955" lon="-0.52854">
        <ele>83</ele>
        <time>2024-04-24T09:50:52Z</time>
      </trkpt>
      <trkpt lat="47.97976" lon="-0.52856">
        <ele>83</ele>
        <time>2024-04-24T09:50:56Z</time>
      </trkpt>
      <trkpt lat="47.97975" lon="-0.52821">
        <ele>83</ele>
        <time>2024-04-24T09:51:00Z</time>
      </trkpt>
      <trkpt lat="47.97956" lon="-0.52692">
        <ele>81</ele>
        <time>2024-04-24T09:51:16Z</time>
      </trkpt>
      <trkpt lat="47.97952" lon="-0.52641">
        <ele>81</ele>
        <time>2024-04-24T09:51:22Z</time>
      </trkpt>
      <trkpt lat="47.97947" lon="-0.52576">
        <ele>80</ele>
        <time>2024-04-24T09:51:30Z</time>
      </trkpt>
      <trkpt lat="47.97944" lon="-0.52445">
        <ele>78</ele>
        <time>2024-04-24T09:51:46Z</time>
      </trkpt>
      <trkpt lat="47.97938" lon="-0.52368">
        <ele>77</ele>
        <time>2024-04-24T09:51:55Z</time>
      </trkpt>
      <trkpt lat="47.97938" lon="-0.52341">
        <ele>76</ele>
        <time>2024-04-24T09:51:58Z</time>
      </trkpt>
      <trkpt lat="47.97943" lon="-0.5228">
        <ele>77</ele>
        <time>2024-04-24T09:52:05Z</time>
      </trkpt>
      <trkpt lat="47.9794" lon="-0.52252">
        <ele>77</ele>
        <time>2024-04-24T09:52:09Z</time>
      </trkpt>
      <trkpt lat="47.97936" lon="-0.52241">
        <ele>77</ele>
        <time>2024-04-24T09:52:10Z</time>
      </trkpt>
      <trkpt lat="47.97935" lon="-0.52215">
        <ele>77</ele>
        <time>2024-04-24T09:52:13Z</time>
      </trkpt>
      <trkpt lat="47.97937" lon="-0.52207">
        <ele>77</ele>
        <time>2024-04-24T09:52:14Z</time>
      </trkpt>
      <trkpt lat="47.97942" lon="-0.52198">
        <ele>77</ele>
        <time>2024-04-24T09:52:16Z</time>
      </trkpt>
      <trkpt lat="47.97961" lon="-0.52187">
        <ele>78</ele>
        <time>2024-04-24T09:52:19Z</time>
      </trkpt>
      <trkpt lat="47.97971" lon="-0.52175">
        <ele>78</ele>
        <time>2024-04-24T09:52:22Z</time>
      </trkpt>
      <trkpt lat="47.97979" lon="-0.52163">
        <ele>78</ele>
        <time>2024-04-24T09:52:24Z</time>
      </trkpt>
      <trkpt lat="47.9798" lon="-0.52152">
        <ele>78</ele>
        <time>2024-04-24T09:52:25Z</time>
      </trkpt>
      <trkpt lat="47.97978" lon="-0.52126">
        <ele>78</ele>
        <time>2024-04-24T09:52:28Z</time>
      </trkpt>
      <trkpt lat="47.97967" lon="-0.52052">
        <ele>76</ele>
        <time>2024-04-24T09:52:37Z</time>
      </trkpt>
      <trkpt lat="47.97948" lon="-0.51984">
        <ele>74</ele>
        <time>2024-04-24T09:52:46Z</time>
      </trkpt>
      <trkpt lat="47.97943" lon="-0.51962">
        <ele>74</ele>
        <time>2024-04-24T09:52:49Z</time>
      </trkpt>
      <trkpt lat="47.97941" lon="-0.51938">
        <ele>73</ele>
        <time>2024-04-24T09:52:52Z</time>
      </trkpt>
      <trkpt lat="47.97939" lon="-0.519">
        <ele>73</ele>
        <time>2024-04-24T09:52:56Z</time>
      </trkpt>
      <trkpt lat="47.9794" lon="-0.5186">
        <ele>72</ele>
        <time>2024-04-24T09:53:01Z</time>
      </trkpt>
      <trkpt lat="47.97944" lon="-0.51771">
        <ele>70</ele>
        <time>2024-04-24T09:53:12Z</time>
      </trkpt>
      <trkpt lat="47.97957" lon="-0.51685">
        <ele>69</ele>
        <time>2024-04-24T09:53:22Z</time>
      </trkpt>
      <trkpt lat="47.97957" lon="-0.51667">
        <ele>69</ele>
        <time>2024-04-24T09:53:24Z</time>
      </trkpt>
      <trkpt lat="47.97942" lon="-0.51526">
        <ele>68</ele>
        <time>2024-04-24T09:53:41Z</time>
      </trkpt>
      <trkpt lat="47.98007" lon="-0.51501">
        <ele>69</ele>
        <time>2024-04-24T09:53:53Z</time>
      </trkpt>
      <trkpt lat="47.9803" lon="-0.51489">
        <ele>70</ele>
        <time>2024-04-24T09:53:57Z</time>
      </trkpt>
      <trkpt lat="47.98055" lon="-0.51473">
        <ele>70</ele>
        <time>2024-04-24T09:54:02Z</time>
      </trkpt>
      <trkpt lat="47.9809" lon="-0.5144">
        <ele>70</ele>
        <time>2024-04-24T09:54:10Z</time>
      </trkpt>
      <trkpt lat="47.98109" lon="-0.51418">
        <ele>70</ele>
        <time>2024-04-24T09:54:14Z</time>
      </trkpt>
      <trkpt lat="47.98141" lon="-0.51366">
        <ele>71</ele>
        <time>2024-04-24T09:54:22Z</time>
      </trkpt>
      <trkpt lat="47.98175" lon="-0.51291">
        <ele>71</ele>
        <time>2024-04-24T09:54:33Z</time>
      </trkpt>
      <trkpt lat="47.98181" lon="-0.51278">
        <ele>71</ele>
        <time>2024-04-24T09:54:35Z</time>
      </trkpt>
      <trkpt lat="47.98267" lon="-0.5109">
        <ele>73</ele>
        <time>2024-04-24T09:55:02Z</time>
      </trkpt>
      <trkpt lat="47.98275" lon="-0.51097">
        <ele>73</ele>
        <time>2024-04-24T09:55:04Z</time>
      </trkpt>
      <trkpt lat="47.98279" lon="-0.51107">
        <ele>73</ele>
        <time>2024-04-24T09:55:05Z</time>
      </trkpt>
      <trkpt lat="47.98282" lon="-0.51123">
        <ele>73</ele>
        <time>2024-04-24T09:55:07Z</time>
      </trkpt>
      <trkpt lat="47.98279" lon="-0.51141">
        <ele>72</ele>
        <time>2024-04-24T09:55:09Z</time>
      </trkpt>
      <trkpt lat="47.98254" lon="-0.51191">
        <ele>71</ele>
        <time>2024-04-24T09:55:17Z</time>
      </trkpt>
      <trkpt lat="47.98247" lon="-0.51211">
        <ele>71</ele>
        <time>2024-04-24T09:55:20Z</time>
      </trkpt>
      <trkpt lat="47.98245" lon="-0.51225">
        <ele>71</ele>
        <time>2024-04-24T09:55:21Z</time>
      </trkpt>
      <trkpt lat="47.98247" lon="-0.51238">
        <ele>71</ele>
        <time>2024-04-24T09:55:23Z</time>
      </trkpt>
      <trkpt lat="47.98258" lon="-0.5126">
        <ele>71</ele>
        <time>2024-04-24T09:55:26Z</time>
      </trkpt>
      <trkpt lat="47.98273" lon="-0.51279">
        <ele>70</ele>
        <time>2024-04-24T09:55:30Z</time>
      </trkpt>
      <trkpt lat="47.98297" lon="-0.51296">
        <ele>70</ele>
        <time>2024-04-24T09:55:34Z</time>
      </trkpt>
      <trkpt lat="47.9831" lon="-0.51297">
        <ele>70</ele>
        <time>2024-04-24T09:55:37Z</time>
      </trkpt>
      <trkpt lat="47.98493" lon="-0.51188">
        <ele>75</ele>
        <time>2024-04-24T09:56:12Z</time>
      </trkpt>
      <trkpt lat="47.98584" lon="-0.51194">
        <ele>78</ele>
        <time>2024-04-24T09:56:28Z</time>
      </trkpt>
      <trkpt lat="47.98672" lon="-0.51196">
        <ele>79</ele>
        <time>2024-04-24T09:56:44Z</time>
      </trkpt>
      <trkpt lat="47.98675" lon="-0.51192">
        <ele>79</ele>
        <time>2024-04-24T09:56:44Z</time>
      </trkpt>
      <trkpt lat="47.98682" lon="-0.51181">
        <ele>79</ele>
        <time>2024-04-24T09:56:46Z</time>
      </trkpt>
      <trkpt lat="47.98678" lon="-0.51075">
        <ele>78</ele>
        <time>2024-04-24T09:56:59Z</time>
      </trkpt>
      <trkpt lat="47.98678" lon="-0.50946">
        <ele>79</ele>
        <time>2024-04-24T09:57:14Z</time>
      </trkpt>
      <trkpt lat="47.98693" lon="-0.50797">
        <ele>78</ele>
        <time>2024-04-24T09:57:32Z</time>
      </trkpt>
      <trkpt lat="47.98724" lon="-0.50687">
        <ele>78</ele>
        <time>2024-04-24T09:57:46Z</time>
      </trkpt>
      <trkpt lat="47.98736" lon="-0.50629">
        <ele>78</ele>
        <time>2024-04-24T09:57:53Z</time>
      </trkpt>
      <trkpt lat="47.98734" lon="-0.50579">
        <ele>78</ele>
        <time>2024-04-24T09:57:59Z</time>
      </trkpt>
      <trkpt lat="47.98693" lon="-0.50485">
        <ele>77</ele>
        <time>2024-04-24T09:58:13Z</time>
      </trkpt>
      <trkpt lat="47.98665" lon="-0.50416">
        <ele>77</ele>
        <time>2024-04-24T09:58:22Z</time>
      </trkpt>
      <trkpt lat="47.98582" lon="-0.50257">
        <ele>78</ele>
        <time>2024-04-24T09:58:46Z</time>
      </trkpt>
      <trkpt lat="47.98561" lon="-0.50198">
        <ele>79</ele>
        <time>2024-04-24T09:58:54Z</time>
      </trkpt>
      <trkpt lat="47.98551" lon="-0.50156">
        <ele>80</ele>
        <time>2024-04-24T09:59:00Z</time>
      </trkpt>
      <trkpt lat="47.98543" lon="-0.50103">
        <ele>81</ele>
        <time>2024-04-24T09:59:06Z</time>
      </trkpt>
      <trkpt lat="47.98515" lon="-0.49837">
        <ele>78</ele>
        <time>2024-04-24T09:59:38Z</time>
      </trkpt>
      <trkpt lat="47.98509" lon="-0.49759">
        <ele>77</ele>
        <time>2024-04-24T09:59:48Z</time>
      </trkpt>
      <trkpt lat="47.98494" lon="-0.49667">
        <ele>78</ele>
        <time>2024-04-24T09:59:59Z</time>
      </trkpt>
      <trkpt lat="47.9849" lon="-0.49594">
        <ele>79</ele>
        <time>2024-04-24T10:00:08Z</time>
      </trkpt>
      <trkpt lat="47.98462" lon="-0.49412">
        <ele>78</ele>
        <time>2024-04-24T10:00:30Z</time>
      </trkpt>
      <trkpt lat="47.98452" lon="-0.49373">
        <ele>77</ele>
        <time>2024-04-24T10:00:35Z</time>
      </trkpt>
      <trkpt lat="47.98388" lon="-0.49189">
        <ele>74</ele>
        <time>2024-04-24T10:00:59Z</time>
      </trkpt>
      <trkpt lat="47.98379" lon="-0.4915">
        <ele>74</ele>
        <time>2024-04-24T10:01:04Z</time>
      </trkpt>
      <trkpt lat="47.98364" lon="-0.4907">
        <ele>73</ele>
        <time>2024-04-24T10:01:14Z</time>
      </trkpt>
      <trkpt lat="47.9836" lon="-0.49029">
        <ele>73</ele>
        <time>2024-04-24T10:01:19Z</time>
      </trkpt>
      <trkpt lat="47.98354" lon="-0.49004">
        <ele>73</ele>
        <time>2024-04-24T10:01:22Z</time>
      </trkpt>
      <trkpt lat="47.98332" lon="-0.48943">
        <ele>75</ele>
        <time>2024-04-24T10:01:31Z</time>
      </trkpt>
      <trkpt lat="47.98306" lon="-0.4879">
        <ele>72</ele>
        <time>2024-04-24T10:01:49Z</time>
      </trkpt>
      <trkpt lat="47.98301" lon="-0.48792">
        <ele>72</ele>
        <time>2024-04-24T10:01:50Z</time>
      </trkpt>
      <trkpt lat="47.98544" lon="-0.48696">
        <ele>65</ele>
        <time>2024-04-24T10:02:35Z</time>
      </trkpt>
      <trkpt lat="47.98749" lon="-0.4862">
        <ele>69</ele>
        <time>2024-04-24T10:03:13Z</time>
      </trkpt>
      <trkpt lat="47.98775" lon="-0.48615">
        <ele>70</ele>
        <time>2024-04-24T10:03:17Z</time>
      </trkpt>
      <trkpt lat="47.98941" lon="-0.48625">
        <ele>73</ele>
        <time>2024-04-24T10:03:47Z</time>
      </trkpt>
      <trkpt lat="47.991" lon="-0.48642">
        <ele>75</ele>
        <time>2024-04-24T10:04:15Z</time>
      </trkpt>
      <trkpt lat="47.99158" lon="-0.4864">
        <ele>75</ele>
        <time>2024-04-24T10:04:26Z</time>
      </trkpt>
      <trkpt lat="47.99254" lon="-0.48608">
        <ele>77</ele>
        <time>2024-04-24T10:04:43Z</time>
      </trkpt>
      <trkpt lat="47.99286" lon="-0.4859">
        <ele>77</ele>
        <time>2024-04-24T10:04:49Z</time>
      </trkpt>
      <trkpt lat="47.99326" lon="-0.48563">
        <ele>75</ele>
        <time>2024-04-24T10:04:57Z</time>
      </trkpt>
      <trkpt lat="47.99357" lon="-0.48554">
        <ele>75</ele>
        <time>2024-04-24T10:05:03Z</time>
      </trkpt>
      <trkpt lat="47.99385" lon="-0.48553">
        <ele>74</ele>
        <time>2024-04-24T10:05:08Z</time>
      </trkpt>
      <trkpt lat="47.99461" lon="-0.4859">
        <ele>74</ele>
        <time>2024-04-24T10:05:22Z</time>
      </trkpt>
      <trkpt lat="47.99492" lon="-0.48598">
        <ele>74</ele>
        <time>2024-04-24T10:05:27Z</time>
      </trkpt>
      <trkpt lat="47.99567" lon="-0.4861">
        <ele>74</ele>
        <time>2024-04-24T10:05:41Z</time>
      </trkpt>
      <trkpt lat="47.997" lon="-0.48649">
        <ele>75</ele>
        <time>2024-04-24T10:06:05Z</time>
      </trkpt>
      <trkpt lat="47.99762" lon="-0.48661">
        <ele>75</ele>
        <time>2024-04-24T10:06:16Z</time>
      </trkpt>
      <trkpt lat="47.99823" lon="-0.48662">
        <ele>75</ele>
        <time>2024-04-24T10:06:27Z</time>
      </trkpt>
      <trkpt lat="47.99841" lon="-0.48667">
        <ele>75</ele>
        <time>2024-04-24T10:06:30Z</time>
      </trkpt>
      <trkpt lat="47.99854" lon="-0.48679">
        <ele>75</ele>
        <time>2024-04-24T10:06:33Z</time>
      </trkpt>
      <trkpt lat="47.99906" lon="-0.48764">
        <ele>76</ele>
        <time>2024-04-24T10:06:47Z</time>
      </trkpt>
      <trkpt lat="47.9991" lon="-0.48774">
        <ele>77</ele>
        <time>2024-04-24T10:06:48Z</time>
      </trkpt>
      <trkpt lat="48.00019" lon="-0.48748">
        <ele>79</ele>
        <time>2024-04-24T10:07:08Z</time>
      </trkpt>
      <trkpt lat="48.00055" lon="-0.48756">
        <ele>80</ele>
        <time>2024-04-24T10:07:14Z</time>
      </trkpt>
      <trkpt lat="48.00095" lon="-0.48751">
        <ele>80</ele>
        <time>2024-04-24T10:07:21Z</time>
      </trkpt>
      <trkpt lat="48.00114" lon="-0.48751">
        <ele>80</ele>
        <time>2024-04-24T10:07:25Z</time>
      </trkpt>
      <trkpt lat="48.00121" lon="-0.4875">
        <ele>80</ele>
        <time>2024-04-24T10:07:26Z</time>
      </trkpt>
      <trkpt lat="48.00125" lon="-0.48747">
        <ele>80</ele>
        <time>2024-04-24T10:07:27Z</time>
      </trkpt>
      <trkpt lat="48.00132" lon="-0.48755">
        <ele>81</ele>
        <time>2024-04-24T10:07:28Z</time>
      </trkpt>
      <trkpt lat="48.00135" lon="-0.48752">
        <ele>81</ele>
        <time>2024-04-24T10:07:29Z</time>
      </trkpt>
      <trkpt lat="48.00164" lon="-0.48752">
        <ele>81</ele>
        <time>2024-04-24T10:07:34Z</time>
      </trkpt>
      <trkpt lat="48.00177" lon="-0.48749">
        <ele>80</ele>
        <time>2024-04-24T10:07:36Z</time>
      </trkpt>
      <trkpt lat="48.00177" lon="-0.48721">
        <ele>79</ele>
        <time>2024-04-24T10:07:40Z</time>
      </trkpt>
    </trkseg>
  </trk>
</gpx>